<?xml version="1.0" encoding="UTF-8" standalone="no" ?>
<gpx xmlns="http://www.topografix.com/GPX/1/1" xmlns:xsi="http://www.w3.org/2001/XMLSchema-instance" xsi:schemaLocation="http://www.topografix.com/GPX/1/1 http://www.topografix.com/GPX/1/1/gpx.xsd" version="1.1" creator="VisuGPX - https://www.visugpx.com">
  <metadata>
    <name>La roche du Guet</name>
    <desc><![CDATA[Au depart du lac de la thuile 73, itinéraire en boucle.]]></desc>
  </metadata>
  <trk>
    <name><![CDATA[20161116_094558.gpx]]></name>
    <trkseg>
      <trkpt lat="45.52996" lon="6.05252">
        <ele>891.7</ele>
        <time>2016-11-16T08:45:59Z</time>
      </trkpt>
      <trkpt lat="45.52995" lon="6.05239">
        <ele>806.32684</ele>
        <time>2016-11-16T08:46:06Z</time>
      </trkpt>
      <trkpt lat="45.52992" lon="6.05226">
        <ele>808.23724</ele>
        <time>2016-11-16T08:46:13Z</time>
      </trkpt>
      <trkpt lat="45.52993" lon="6.05212">
        <ele>808.5279</ele>
        <time>2016-11-16T08:46:21Z</time>
      </trkpt>
      <trkpt lat="45.52999" lon="6.052">
        <ele>807.944</ele>
        <time>2016-11-16T08:46:27Z</time>
      </trkpt>
      <trkpt lat="45.52995" lon="6.05186">
        <ele>808.5279</ele>
        <time>2016-11-16T08:46:32Z</time>
      </trkpt>
      <trkpt lat="45.52992" lon="6.05173">
        <ele>809.1515</ele>
        <time>2016-11-16T08:46:41Z</time>
      </trkpt>
      <trkpt lat="45.52989" lon="6.0516">
        <ele>810.68396</ele>
        <time>2016-11-16T08:46:47Z</time>
      </trkpt>
      <trkpt lat="45.52988" lon="6.05148">
        <ele>810.70245</ele>
        <time>2016-11-16T08:46:55Z</time>
      </trkpt>
      <trkpt lat="45.52987" lon="6.05134">
        <ele>810.7765</ele>
        <time>2016-11-16T08:47:03Z</time>
      </trkpt>
      <trkpt lat="45.52987" lon="6.05121">
        <ele>811.2283</ele>
        <time>2016-11-16T08:47:11Z</time>
      </trkpt>
      <trkpt lat="45.52987" lon="6.05108">
        <ele>811.34985</ele>
        <time>2016-11-16T08:47:19Z</time>
      </trkpt>
      <trkpt lat="45.5298" lon="6.05099">
        <ele>811.0803</ele>
        <time>2016-11-16T08:47:43Z</time>
      </trkpt>
      <trkpt lat="45.52971" lon="6.05102">
        <ele>811.8809</ele>
        <time>2016-11-16T08:47:51Z</time>
      </trkpt>
      <trkpt lat="45.52962" lon="6.05104">
        <ele>813.0594</ele>
        <time>2016-11-16T08:48:00Z</time>
      </trkpt>
      <trkpt lat="45.52957" lon="6.05116">
        <ele>813.31305</ele>
        <time>2016-11-16T08:48:08Z</time>
      </trkpt>
      <trkpt lat="45.52951" lon="6.05126">
        <ele>812.9801</ele>
        <time>2016-11-16T08:48:15Z</time>
      </trkpt>
      <trkpt lat="45.52943" lon="6.05134">
        <ele>812.99335</ele>
        <time>2016-11-16T08:48:23Z</time>
      </trkpt>
      <trkpt lat="45.52933" lon="6.05136">
        <ele>814.46246</ele>
        <time>2016-11-16T08:48:32Z</time>
      </trkpt>
      <trkpt lat="45.52924" lon="6.05143">
        <ele>815.7334</ele>
        <time>2016-11-16T08:48:42Z</time>
      </trkpt>
      <trkpt lat="45.52918" lon="6.05154">
        <ele>816.3094</ele>
        <time>2016-11-16T08:48:49Z</time>
      </trkpt>
      <trkpt lat="45.52913" lon="6.05166">
        <ele>817.18396</ele>
        <time>2016-11-16T08:48:56Z</time>
      </trkpt>
      <trkpt lat="45.52909" lon="6.05179">
        <ele>818.16693</ele>
        <time>2016-11-16T08:49:07Z</time>
      </trkpt>
      <trkpt lat="45.52901" lon="6.05189">
        <ele>819.1604</ele>
        <time>2016-11-16T08:49:15Z</time>
      </trkpt>
      <trkpt lat="45.52896" lon="6.05201">
        <ele>819.61224</ele>
        <time>2016-11-16T08:49:24Z</time>
      </trkpt>
      <trkpt lat="45.52891" lon="6.05213">
        <ele>820.11957</ele>
        <time>2016-11-16T08:49:32Z</time>
      </trkpt>
      <trkpt lat="45.52887" lon="6.05226">
        <ele>821.0787</ele>
        <time>2016-11-16T08:49:41Z</time>
      </trkpt>
      <trkpt lat="45.52882" lon="6.05238">
        <ele>822.7724</ele>
        <time>2016-11-16T08:49:48Z</time>
      </trkpt>
      <trkpt lat="45.52874" lon="6.05247">
        <ele>823.92706</ele>
        <time>2016-11-16T08:49:59Z</time>
      </trkpt>
      <trkpt lat="45.52867" lon="6.05258">
        <ele>826.19147</ele>
        <time>2016-11-16T08:50:07Z</time>
      </trkpt>
      <trkpt lat="45.5286" lon="6.05268">
        <ele>826.23376</ele>
        <time>2016-11-16T08:50:17Z</time>
      </trkpt>
      <trkpt lat="45.52852" lon="6.05274">
        <ele>828.5246</ele>
        <time>2016-11-16T08:50:25Z</time>
      </trkpt>
      <trkpt lat="45.52845" lon="6.05283">
        <ele>827.8482</ele>
        <time>2016-11-16T08:50:34Z</time>
      </trkpt>
      <trkpt lat="45.52836" lon="6.05288">
        <ele>828.3555</ele>
        <time>2016-11-16T08:50:42Z</time>
      </trkpt>
      <trkpt lat="45.52828" lon="6.05295">
        <ele>828.1917</ele>
        <time>2016-11-16T08:50:50Z</time>
      </trkpt>
      <trkpt lat="45.5282" lon="6.05303">
        <ele>826.14655</ele>
        <time>2016-11-16T08:50:58Z</time>
      </trkpt>
      <trkpt lat="45.52814" lon="6.05313">
        <ele>825.61017</ele>
        <time>2016-11-16T08:51:06Z</time>
      </trkpt>
      <trkpt lat="45.5281" lon="6.05328">
        <ele>825.6578</ele>
        <time>2016-11-16T08:51:11Z</time>
      </trkpt>
      <trkpt lat="45.52805" lon="6.05339">
        <ele>826.13074</ele>
        <time>2016-11-16T08:51:21Z</time>
      </trkpt>
      <trkpt lat="45.528" lon="6.0535">
        <ele>826.6829</ele>
        <time>2016-11-16T08:51:28Z</time>
      </trkpt>
      <trkpt lat="45.52794" lon="6.05359">
        <ele>825.68945</ele>
        <time>2016-11-16T08:51:35Z</time>
      </trkpt>
      <trkpt lat="45.52788" lon="6.0537">
        <ele>826.8204</ele>
        <time>2016-11-16T08:51:43Z</time>
      </trkpt>
      <trkpt lat="45.52781" lon="6.05379">
        <ele>825.848</ele>
        <time>2016-11-16T08:51:51Z</time>
      </trkpt>
      <trkpt lat="45.52773" lon="6.05388">
        <ele>826.498</ele>
        <time>2016-11-16T08:51:58Z</time>
      </trkpt>
      <trkpt lat="45.52764" lon="6.05394">
        <ele>827.325</ele>
        <time>2016-11-16T08:52:04Z</time>
      </trkpt>
      <trkpt lat="45.52756" lon="6.05399">
        <ele>825.97217</ele>
        <time>2016-11-16T08:52:10Z</time>
      </trkpt>
      <trkpt lat="45.52747" lon="6.05406">
        <ele>827.547</ele>
        <time>2016-11-16T08:52:23Z</time>
      </trkpt>
      <trkpt lat="45.52741" lon="6.05416">
        <ele>826.5614</ele>
        <time>2016-11-16T08:52:30Z</time>
      </trkpt>
      <trkpt lat="45.52742" lon="6.0543">
        <ele>827.39105</ele>
        <time>2016-11-16T08:52:37Z</time>
      </trkpt>
      <trkpt lat="45.52741" lon="6.05444">
        <ele>828.4031</ele>
        <time>2016-11-16T08:52:46Z</time>
      </trkpt>
      <trkpt lat="45.52742" lon="6.05458">
        <ele>831.08234</ele>
        <time>2016-11-16T08:52:55Z</time>
      </trkpt>
      <trkpt lat="45.52742" lon="6.05472">
        <ele>832.0785</ele>
        <time>2016-11-16T08:53:04Z</time>
      </trkpt>
      <trkpt lat="45.52742" lon="6.05487">
        <ele>832.2978</ele>
        <time>2016-11-16T08:53:13Z</time>
      </trkpt>
      <trkpt lat="45.52739" lon="6.05499">
        <ele>833.6691</ele>
        <time>2016-11-16T08:53:20Z</time>
      </trkpt>
      <trkpt lat="45.52743" lon="6.05512">
        <ele>834.8925</ele>
        <time>2016-11-16T08:53:30Z</time>
      </trkpt>
      <trkpt lat="45.52745" lon="6.05526">
        <ele>836.0921</ele>
        <time>2016-11-16T08:53:39Z</time>
      </trkpt>
      <trkpt lat="45.52742" lon="6.05538">
        <ele>835.5055</ele>
        <time>2016-11-16T08:53:47Z</time>
      </trkpt>
      <trkpt lat="45.52737" lon="6.0555">
        <ele>837.2996</ele>
        <time>2016-11-16T08:53:56Z</time>
      </trkpt>
      <trkpt lat="45.52731" lon="6.05559">
        <ele>838.38824</ele>
        <time>2016-11-16T08:54:07Z</time>
      </trkpt>
      <trkpt lat="45.52724" lon="6.05568">
        <ele>839.99475</ele>
        <time>2016-11-16T08:54:15Z</time>
      </trkpt>
      <trkpt lat="45.52715" lon="6.05576">
        <ele>840.8033</ele>
        <time>2016-11-16T08:54:23Z</time>
      </trkpt>
      <trkpt lat="45.52706" lon="6.05583">
        <ele>841.2604</ele>
        <time>2016-11-16T08:54:32Z</time>
      </trkpt>
      <trkpt lat="45.52696" lon="6.05588">
        <ele>841.5087</ele>
        <time>2016-11-16T08:54:41Z</time>
      </trkpt>
      <trkpt lat="45.52691" lon="6.05598">
        <ele>843.16016</ele>
        <time>2016-11-16T08:54:48Z</time>
      </trkpt>
      <trkpt lat="45.52683" lon="6.05609">
        <ele>843.6173</ele>
        <time>2016-11-16T08:54:59Z</time>
      </trkpt>
      <trkpt lat="45.52678" lon="6.05621">
        <ele>844.80365</ele>
        <time>2016-11-16T08:55:09Z</time>
      </trkpt>
      <trkpt lat="45.52669" lon="6.05629">
        <ele>846.3018</ele>
        <time>2016-11-16T08:55:22Z</time>
      </trkpt>
      <trkpt lat="45.52663" lon="6.05639">
        <ele>847.6045</ele>
        <time>2016-11-16T08:55:28Z</time>
      </trkpt>
      <trkpt lat="45.52655" lon="6.05653">
        <ele>847.95856</ele>
        <time>2016-11-16T08:55:35Z</time>
      </trkpt>
      <trkpt lat="45.52646" lon="6.05658">
        <ele>849.01544</ele>
        <time>2016-11-16T08:55:44Z</time>
      </trkpt>
      <trkpt lat="45.52637" lon="6.05666">
        <ele>850.7144</ele>
        <time>2016-11-16T08:55:52Z</time>
      </trkpt>
      <trkpt lat="45.52628" lon="6.05665">
        <ele>852.66705</ele>
        <time>2016-11-16T08:56:04Z</time>
      </trkpt>
      <trkpt lat="45.5262" lon="6.0567">
        <ele>854.8998</ele>
        <time>2016-11-16T08:56:13Z</time>
      </trkpt>
      <trkpt lat="45.52611" lon="6.05677">
        <ele>855.4124</ele>
        <time>2016-11-16T08:56:20Z</time>
      </trkpt>
      <trkpt lat="45.52603" lon="6.05684">
        <ele>855.63965</ele>
        <time>2016-11-16T08:56:29Z</time>
      </trkpt>
      <trkpt lat="45.52593" lon="6.05685">
        <ele>856.25</ele>
        <time>2016-11-16T08:56:40Z</time>
      </trkpt>
      <trkpt lat="45.52583" lon="6.05688">
        <ele>857.4998</ele>
        <time>2016-11-16T08:56:49Z</time>
      </trkpt>
      <trkpt lat="45.52572" lon="6.0569">
        <ele>858.52765</ele>
        <time>2016-11-16T08:57:00Z</time>
      </trkpt>
      <trkpt lat="45.52563" lon="6.05692">
        <ele>857.38086</ele>
        <time>2016-11-16T08:57:09Z</time>
      </trkpt>
      <trkpt lat="45.52556" lon="6.05701">
        <ele>858.40875</ele>
        <time>2016-11-16T08:57:14Z</time>
      </trkpt>
      <trkpt lat="45.52547" lon="6.05698">
        <ele>858.17096</ele>
        <time>2016-11-16T08:57:21Z</time>
      </trkpt>
      <trkpt lat="45.52539" lon="6.05706">
        <ele>858.4933</ele>
        <time>2016-11-16T08:57:27Z</time>
      </trkpt>
      <trkpt lat="45.52531" lon="6.05714">
        <ele>858.7179</ele>
        <time>2016-11-16T08:57:35Z</time>
      </trkpt>
      <trkpt lat="45.52522" lon="6.05717">
        <ele>859.38904</ele>
        <time>2016-11-16T08:57:42Z</time>
      </trkpt>
      <trkpt lat="45.52515" lon="6.05721">
        <ele>859.0323</ele>
        <time>2016-11-16T08:58:09Z</time>
      </trkpt>
      <trkpt lat="45.52506" lon="6.05725">
        <ele>858.6254</ele>
        <time>2016-11-16T08:58:17Z</time>
      </trkpt>
      <trkpt lat="45.52497" lon="6.05727">
        <ele>858.78394</ele>
        <time>2016-11-16T08:58:25Z</time>
      </trkpt>
      <trkpt lat="45.52487" lon="6.0573">
        <ele>859.4445</ele>
        <time>2016-11-16T08:58:37Z</time>
      </trkpt>
      <trkpt lat="45.52477" lon="6.05733">
        <ele>859.26746</ele>
        <time>2016-11-16T08:58:47Z</time>
      </trkpt>
      <trkpt lat="45.52468" lon="6.05734">
        <ele>859.8593</ele>
        <time>2016-11-16T08:58:56Z</time>
      </trkpt>
      <trkpt lat="45.52458" lon="6.05735">
        <ele>861.65344</ele>
        <time>2016-11-16T08:59:04Z</time>
      </trkpt>
      <trkpt lat="45.52449" lon="6.05739">
        <ele>862.12115</ele>
        <time>2016-11-16T08:59:13Z</time>
      </trkpt>
      <trkpt lat="45.52442" lon="6.05749">
        <ele>862.95874</ele>
        <time>2016-11-16T08:59:22Z</time>
      </trkpt>
      <trkpt lat="45.52438" lon="6.05761">
        <ele>863.78314</ele>
        <time>2016-11-16T08:59:30Z</time>
      </trkpt>
      <trkpt lat="45.52436" lon="6.05775">
        <ele>864.80304</ele>
        <time>2016-11-16T08:59:38Z</time>
      </trkpt>
      <trkpt lat="45.52435" lon="6.05789">
        <ele>865.6512</ele>
        <time>2016-11-16T08:59:47Z</time>
      </trkpt>
      <trkpt lat="45.52433" lon="6.05803">
        <ele>866.8984</ele>
        <time>2016-11-16T08:59:56Z</time>
      </trkpt>
      <trkpt lat="45.52431" lon="6.05816">
        <ele>868.0187</ele>
        <time>2016-11-16T09:00:06Z</time>
      </trkpt>
      <trkpt lat="45.52424" lon="6.05807">
        <ele>869.9951</ele>
        <time>2016-11-16T09:00:23Z</time>
      </trkpt>
      <trkpt lat="45.52422" lon="6.05794">
        <ele>871.8315</ele>
        <time>2016-11-16T09:00:34Z</time>
      </trkpt>
      <trkpt lat="45.52417" lon="6.05783">
        <ele>873.46967</ele>
        <time>2016-11-16T09:00:46Z</time>
      </trkpt>
      <trkpt lat="45.52414" lon="6.05769">
        <ele>874.5874</ele>
        <time>2016-11-16T09:00:57Z</time>
      </trkpt>
      <trkpt lat="45.52411" lon="6.05757">
        <ele>876.0961</ele>
        <time>2016-11-16T09:01:06Z</time>
      </trkpt>
      <trkpt lat="45.52405" lon="6.05746">
        <ele>876.4132</ele>
        <time>2016-11-16T09:01:15Z</time>
      </trkpt>
      <trkpt lat="45.52401" lon="6.05734">
        <ele>878.2126</ele>
        <time>2016-11-16T09:01:26Z</time>
      </trkpt>
      <trkpt lat="45.52394" lon="6.05724">
        <ele>879.43066</ele>
        <time>2016-11-16T09:01:37Z</time>
      </trkpt>
      <trkpt lat="45.52387" lon="6.05716">
        <ele>880.93146</ele>
        <time>2016-11-16T09:01:47Z</time>
      </trkpt>
      <trkpt lat="45.52379" lon="6.0571">
        <ele>881.8483</ele>
        <time>2016-11-16T09:01:56Z</time>
      </trkpt>
      <trkpt lat="45.5237" lon="6.05703">
        <ele>883.3492</ele>
        <time>2016-11-16T09:02:08Z</time>
      </trkpt>
      <trkpt lat="45.52362" lon="6.05695">
        <ele>885.49207</ele>
        <time>2016-11-16T09:02:21Z</time>
      </trkpt>
      <trkpt lat="45.52356" lon="6.05685">
        <ele>887.0589</ele>
        <time>2016-11-16T09:02:35Z</time>
      </trkpt>
      <trkpt lat="45.52349" lon="6.05676">
        <ele>889.03534</ele>
        <time>2016-11-16T09:02:48Z</time>
      </trkpt>
      <trkpt lat="45.52346" lon="6.05664">
        <ele>890.7898</ele>
        <time>2016-11-16T09:03:00Z</time>
      </trkpt>
      <trkpt lat="45.52343" lon="6.05652">
        <ele>892.0581</ele>
        <time>2016-11-16T09:03:15Z</time>
      </trkpt>
      <trkpt lat="45.52338" lon="6.05637">
        <ele>892.7794</ele>
        <time>2016-11-16T09:03:25Z</time>
      </trkpt>
      <trkpt lat="45.52331" lon="6.05627">
        <ele>897.3743</ele>
        <time>2016-11-16T09:03:53Z</time>
      </trkpt>
      <trkpt lat="45.5233" lon="6.05613">
        <ele>897.9292</ele>
        <time>2016-11-16T09:03:57Z</time>
      </trkpt>
      <trkpt lat="45.52327" lon="6.05601">
        <ele>898.78265</ele>
        <time>2016-11-16T09:04:03Z</time>
      </trkpt>
      <trkpt lat="45.52326" lon="6.05587">
        <ele>900.2465</ele>
        <time>2016-11-16T09:04:09Z</time>
      </trkpt>
      <trkpt lat="45.52322" lon="6.05568">
        <ele>902.99713</ele>
        <time>2016-11-16T09:04:41Z</time>
      </trkpt>
      <trkpt lat="45.52324" lon="6.05555">
        <ele>900.94934</ele>
        <time>2016-11-16T09:04:45Z</time>
      </trkpt>
      <trkpt lat="45.52322" lon="6.05541">
        <ele>904.38696</ele>
        <time>2016-11-16T09:04:52Z</time>
      </trkpt>
      <trkpt lat="45.52322" lon="6.05528">
        <ele>904.5508</ele>
        <time>2016-11-16T09:04:58Z</time>
      </trkpt>
      <trkpt lat="45.52319" lon="6.05515">
        <ele>905.317</ele>
        <time>2016-11-16T09:05:06Z</time>
      </trkpt>
      <trkpt lat="45.52318" lon="6.05501">
        <ele>906.5404</ele>
        <time>2016-11-16T09:05:18Z</time>
      </trkpt>
      <trkpt lat="45.52314" lon="6.05489">
        <ele>905.0475</ele>
        <time>2016-11-16T09:05:26Z</time>
      </trkpt>
      <trkpt lat="45.52314" lon="6.05475">
        <ele>908.53265</ele>
        <time>2016-11-16T09:05:39Z</time>
      </trkpt>
      <trkpt lat="45.52311" lon="6.05463">
        <ele>907.0372</ele>
        <time>2016-11-16T09:05:49Z</time>
      </trkpt>
      <trkpt lat="45.52311" lon="6.0545">
        <ele>910.3083</ele>
        <time>2016-11-16T09:06:02Z</time>
      </trkpt>
      <trkpt lat="45.52309" lon="6.05436">
        <ele>911.167</ele>
        <time>2016-11-16T09:06:12Z</time>
      </trkpt>
      <trkpt lat="45.52308" lon="6.05423">
        <ele>909.85645</ele>
        <time>2016-11-16T09:06:18Z</time>
      </trkpt>
      <trkpt lat="45.52306" lon="6.05409">
        <ele>911.9729</ele>
        <time>2016-11-16T09:06:27Z</time>
      </trkpt>
      <trkpt lat="45.52306" lon="6.05396">
        <ele>913.2571</ele>
        <time>2016-11-16T09:06:32Z</time>
      </trkpt>
      <trkpt lat="45.52307" lon="6.05382">
        <ele>911.817</ele>
        <time>2016-11-16T09:06:39Z</time>
      </trkpt>
      <trkpt lat="45.52306" lon="6.05369">
        <ele>914.38794</ele>
        <time>2016-11-16T09:06:53Z</time>
      </trkpt>
      <trkpt lat="45.52301" lon="6.05355">
        <ele>914.74994</ele>
        <time>2016-11-16T09:07:03Z</time>
      </trkpt>
      <trkpt lat="45.52296" lon="6.05342">
        <ele>912.8422</ele>
        <time>2016-11-16T09:07:28Z</time>
      </trkpt>
      <trkpt lat="45.52294" lon="6.05329">
        <ele>915.001</ele>
        <time>2016-11-16T09:07:34Z</time>
      </trkpt>
      <trkpt lat="45.52293" lon="6.05315">
        <ele>913.10114</ele>
        <time>2016-11-16T09:07:43Z</time>
      </trkpt>
      <trkpt lat="45.52291" lon="6.05303">
        <ele>913.915</ele>
        <time>2016-11-16T09:07:51Z</time>
      </trkpt>
      <trkpt lat="45.5229" lon="6.05287">
        <ele>915.06964</ele>
        <time>2016-11-16T09:07:59Z</time>
      </trkpt>
      <trkpt lat="45.52291" lon="6.05274">
        <ele>915.5796</ele>
        <time>2016-11-16T09:08:07Z</time>
      </trkpt>
      <trkpt lat="45.52292" lon="6.0526">
        <ele>914.0365</ele>
        <time>2016-11-16T09:08:14Z</time>
      </trkpt>
      <trkpt lat="45.52291" lon="6.05246">
        <ele>914.45667</ele>
        <time>2016-11-16T09:08:26Z</time>
      </trkpt>
      <trkpt lat="45.5229" lon="6.05232">
        <ele>916.99585</ele>
        <time>2016-11-16T09:08:36Z</time>
      </trkpt>
      <trkpt lat="45.52289" lon="6.05219">
        <ele>917.11475</ele>
        <time>2016-11-16T09:08:43Z</time>
      </trkpt>
      <trkpt lat="45.52288" lon="6.05206">
        <ele>917.2099</ele>
        <time>2016-11-16T09:08:54Z</time>
      </trkpt>
      <trkpt lat="45.52285" lon="6.05188">
        <ele>917.33673</ele>
        <time>2016-11-16T09:09:07Z</time>
      </trkpt>
      <trkpt lat="45.52283" lon="6.05174">
        <ele>916.3829</ele>
        <time>2016-11-16T09:09:19Z</time>
      </trkpt>
      <trkpt lat="45.5228" lon="6.05161">
        <ele>918.3038</ele>
        <time>2016-11-16T09:09:32Z</time>
      </trkpt>
      <trkpt lat="45.52288" lon="6.05151">
        <ele>916.6656</ele>
        <time>2016-11-16T09:10:02Z</time>
      </trkpt>
      <trkpt lat="45.52291" lon="6.05139">
        <ele>918.6975</ele>
        <time>2016-11-16T09:10:09Z</time>
      </trkpt>
      <trkpt lat="45.52291" lon="6.05126">
        <ele>919.18896</ele>
        <time>2016-11-16T09:12:20Z</time>
      </trkpt>
      <trkpt lat="45.52288" lon="6.05114">
        <ele>921.4639</ele>
        <time>2016-11-16T09:12:29Z</time>
      </trkpt>
      <trkpt lat="45.52279" lon="6.05107">
        <ele>923.0916</ele>
        <time>2016-11-16T09:12:40Z</time>
      </trkpt>
      <trkpt lat="45.52272" lon="6.05098">
        <ele>923.39545</ele>
        <time>2016-11-16T09:12:49Z</time>
      </trkpt>
      <trkpt lat="45.52266" lon="6.05088">
        <ele>924.3123</ele>
        <time>2016-11-16T09:12:56Z</time>
      </trkpt>
      <trkpt lat="45.52259" lon="6.05077">
        <ele>924.2172</ele>
        <time>2016-11-16T09:13:06Z</time>
      </trkpt>
      <trkpt lat="45.52256" lon="6.05065">
        <ele>925.4379</ele>
        <time>2016-11-16T09:13:16Z</time>
      </trkpt>
      <trkpt lat="45.52254" lon="6.05049">
        <ele>924.1934</ele>
        <time>2016-11-16T09:13:30Z</time>
      </trkpt>
      <trkpt lat="45.52255" lon="6.05036">
        <ele>925.3904</ele>
        <time>2016-11-16T09:13:41Z</time>
      </trkpt>
      <trkpt lat="45.52255" lon="6.05023">
        <ele>926.90704</ele>
        <time>2016-11-16T09:13:52Z</time>
      </trkpt>
      <trkpt lat="45.52254" lon="6.0501">
        <ele>929.1424</ele>
        <time>2016-11-16T09:14:00Z</time>
      </trkpt>
      <trkpt lat="45.5225" lon="6.04998">
        <ele>930.3896</ele>
        <time>2016-11-16T09:14:11Z</time>
      </trkpt>
      <trkpt lat="45.52249" lon="6.04985">
        <ele>928.2652</ele>
        <time>2016-11-16T09:14:22Z</time>
      </trkpt>
      <trkpt lat="45.52244" lon="6.04973">
        <ele>927.8979</ele>
        <time>2016-11-16T09:14:28Z</time>
      </trkpt>
      <trkpt lat="45.5224" lon="6.04961">
        <ele>926.54767</ele>
        <time>2016-11-16T09:14:37Z</time>
      </trkpt>
      <trkpt lat="45.5224" lon="6.04948">
        <ele>924.64264</ele>
        <time>2016-11-16T09:14:49Z</time>
      </trkpt>
      <trkpt lat="45.52235" lon="6.04936">
        <ele>922.6213</ele>
        <time>2016-11-16T09:14:58Z</time>
      </trkpt>
      <trkpt lat="45.5223" lon="6.04925">
        <ele>922.5843</ele>
        <time>2016-11-16T09:15:06Z</time>
      </trkpt>
      <trkpt lat="45.52236" lon="6.04915">
        <ele>916.2904</ele>
        <time>2016-11-16T09:15:58Z</time>
      </trkpt>
      <trkpt lat="45.52231" lon="6.04903">
        <ele>915.2625</ele>
        <time>2016-11-16T09:16:03Z</time>
      </trkpt>
      <trkpt lat="45.52229" lon="6.04867">
        <ele>910.7046</ele>
        <time>2016-11-16T09:16:34Z</time>
      </trkpt>
      <trkpt lat="45.52221" lon="6.04854">
        <ele>911.2542</ele>
        <time>2016-11-16T09:16:36Z</time>
      </trkpt>
      <trkpt lat="45.52218" lon="6.04841">
        <ele>910.6306</ele>
        <time>2016-11-16T09:16:40Z</time>
      </trkpt>
      <trkpt lat="45.52215" lon="6.04823">
        <ele>911.5792</ele>
        <time>2016-11-16T09:17:11Z</time>
      </trkpt>
      <trkpt lat="45.52211" lon="6.04795">
        <ele>912.9717</ele>
        <time>2016-11-16T09:18:25Z</time>
      </trkpt>
      <trkpt lat="45.52202" lon="6.04799">
        <ele>911.96234</ele>
        <time>2016-11-16T09:18:43Z</time>
      </trkpt>
      <trkpt lat="45.52192" lon="6.04801">
        <ele>911.9782</ele>
        <time>2016-11-16T09:18:49Z</time>
      </trkpt>
      <trkpt lat="45.52183" lon="6.04795">
        <ele>910.71783</ele>
        <time>2016-11-16T09:19:01Z</time>
      </trkpt>
      <trkpt lat="45.52176" lon="6.04786">
        <ele>906.84955</ele>
        <time>2016-11-16T09:19:10Z</time>
      </trkpt>
      <trkpt lat="45.52175" lon="6.04772">
        <ele>905.92737</ele>
        <time>2016-11-16T09:19:16Z</time>
      </trkpt>
      <trkpt lat="45.52176" lon="6.04759">
        <ele>905.7186</ele>
        <time>2016-11-16T09:19:21Z</time>
      </trkpt>
      <trkpt lat="45.52176" lon="6.04745">
        <ele>904.7701</ele>
        <time>2016-11-16T09:19:29Z</time>
      </trkpt>
      <trkpt lat="45.52175" lon="6.04729">
        <ele>904.8097</ele>
        <time>2016-11-16T09:19:41Z</time>
      </trkpt>
      <trkpt lat="45.52166" lon="6.0472">
        <ele>901.22943</ele>
        <time>2016-11-16T09:19:50Z</time>
      </trkpt>
      <trkpt lat="45.52164" lon="6.04705">
        <ele>898.8144</ele>
        <time>2016-11-16T09:20:15Z</time>
      </trkpt>
      <trkpt lat="45.52163" lon="6.04692">
        <ele>896.1853</ele>
        <time>2016-11-16T09:20:20Z</time>
      </trkpt>
      <trkpt lat="45.5216" lon="6.04678">
        <ele>894.83777</ele>
        <time>2016-11-16T09:20:27Z</time>
      </trkpt>
      <trkpt lat="45.5216" lon="6.04664">
        <ele>894.7717</ele>
        <time>2016-11-16T09:20:34Z</time>
      </trkpt>
      <trkpt lat="45.52163" lon="6.0465">
        <ele>892.7794</ele>
        <time>2016-11-16T09:20:43Z</time>
      </trkpt>
      <trkpt lat="45.52159" lon="6.04637">
        <ele>891.98413</ele>
        <time>2016-11-16T09:20:51Z</time>
      </trkpt>
      <trkpt lat="45.52156" lon="6.04625">
        <ele>890.449</ele>
        <time>2016-11-16T09:20:57Z</time>
      </trkpt>
      <trkpt lat="45.52154" lon="6.04611">
        <ele>885.66644</ele>
        <time>2016-11-16T09:21:21Z</time>
      </trkpt>
      <trkpt lat="45.52156" lon="6.04598">
        <ele>885.0825</ele>
        <time>2016-11-16T09:21:26Z</time>
      </trkpt>
      <trkpt lat="45.52156" lon="6.04584">
        <ele>882.3583</ele>
        <time>2016-11-16T09:21:55Z</time>
      </trkpt>
      <trkpt lat="45.5215" lon="6.04574">
        <ele>881.69244</ele>
        <time>2016-11-16T09:21:58Z</time>
      </trkpt>
      <trkpt lat="45.52144" lon="6.04563">
        <ele>882.353</ele>
        <time>2016-11-16T09:22:02Z</time>
      </trkpt>
      <trkpt lat="45.52137" lon="6.04551">
        <ele>883.1906</ele>
        <time>2016-11-16T09:22:06Z</time>
      </trkpt>
      <trkpt lat="45.52135" lon="6.04539">
        <ele>888.5016</ele>
        <time>2016-11-16T09:22:20Z</time>
      </trkpt>
      <trkpt lat="45.52133" lon="6.04526">
        <ele>892.3223</ele>
        <time>2016-11-16T09:22:59Z</time>
      </trkpt>
      <trkpt lat="45.52137" lon="6.04512">
        <ele>892.4359</ele>
        <time>2016-11-16T09:23:05Z</time>
      </trkpt>
      <trkpt lat="45.52128" lon="6.0449">
        <ele>895.65424</ele>
        <time>2016-11-16T09:23:25Z</time>
      </trkpt>
      <trkpt lat="45.52126" lon="6.04475">
        <ele>894.0345</ele>
        <time>2016-11-16T09:23:29Z</time>
      </trkpt>
      <trkpt lat="45.52128" lon="6.04462">
        <ele>894.9276</ele>
        <time>2016-11-16T09:23:35Z</time>
      </trkpt>
      <trkpt lat="45.52116" lon="6.0447">
        <ele>897.3585</ele>
        <time>2016-11-16T09:23:47Z</time>
      </trkpt>
      <trkpt lat="45.52112" lon="6.04456">
        <ele>897.4272</ele>
        <time>2016-11-16T09:23:52Z</time>
      </trkpt>
      <trkpt lat="45.52101" lon="6.04445">
        <ele>899.34546</ele>
        <time>2016-11-16T09:24:09Z</time>
      </trkpt>
      <trkpt lat="45.52092" lon="6.0444">
        <ele>901.69977</ele>
        <time>2016-11-16T09:24:21Z</time>
      </trkpt>
      <trkpt lat="45.5209" lon="6.04428">
        <ele>902.5664</ele>
        <time>2016-11-16T09:24:30Z</time>
      </trkpt>
      <trkpt lat="45.52091" lon="6.0442">
        <ele>902.6642</ele>
        <time>2016-11-16T09:25:13Z</time>
      </trkpt>
      <trkpt lat="45.52087" lon="6.04408">
        <ele>902.91785</ele>
        <time>2016-11-16T09:25:17Z</time>
      </trkpt>
      <trkpt lat="45.52079" lon="6.04403">
        <ele>901.7526</ele>
        <time>2016-11-16T09:25:25Z</time>
      </trkpt>
      <trkpt lat="45.52073" lon="6.04392">
        <ele>902.1278</ele>
        <time>2016-11-16T09:25:31Z</time>
      </trkpt>
      <trkpt lat="45.52067" lon="6.0438">
        <ele>901.7473</ele>
        <time>2016-11-16T09:25:35Z</time>
      </trkpt>
      <trkpt lat="45.52065" lon="6.04366">
        <ele>902.11456</ele>
        <time>2016-11-16T09:25:41Z</time>
      </trkpt>
      <trkpt lat="45.52065" lon="6.0435">
        <ele>901.668</ele>
        <time>2016-11-16T09:25:48Z</time>
      </trkpt>
      <trkpt lat="45.52057" lon="6.04345">
        <ele>901.2056</ele>
        <time>2016-11-16T09:25:56Z</time>
      </trkpt>
      <trkpt lat="45.52054" lon="6.04332">
        <ele>901.6073</ele>
        <time>2016-11-16T09:26:02Z</time>
      </trkpt>
      <trkpt lat="45.52045" lon="6.04325">
        <ele>904.0672</ele>
        <time>2016-11-16T09:26:18Z</time>
      </trkpt>
      <trkpt lat="45.52049" lon="6.04309">
        <ele>904.1359</ele>
        <time>2016-11-16T09:26:20Z</time>
      </trkpt>
      <trkpt lat="45.5205" lon="6.04328">
        <ele>902.13306</ele>
        <time>2016-11-16T09:26:23Z</time>
      </trkpt>
      <trkpt lat="45.52047" lon="6.04313">
        <ele>901.98773</ele>
        <time>2016-11-16T09:26:28Z</time>
      </trkpt>
      <trkpt lat="45.52046" lon="6.04309">
        <ele>910.4457</ele>
        <time>2016-11-16T09:27:44Z</time>
      </trkpt>
      <trkpt lat="45.52037" lon="6.04303">
        <ele>909.0532</ele>
        <time>2016-11-16T09:27:49Z</time>
      </trkpt>
      <trkpt lat="45.52029" lon="6.04292">
        <ele>911.44977</ele>
        <time>2016-11-16T09:27:53Z</time>
      </trkpt>
      <trkpt lat="45.52025" lon="6.04279">
        <ele>911.40485</ele>
        <time>2016-11-16T09:28:01Z</time>
      </trkpt>
      <trkpt lat="45.52017" lon="6.04272">
        <ele>916.0869</ele>
        <time>2016-11-16T09:28:36Z</time>
      </trkpt>
      <trkpt lat="45.5201" lon="6.04264">
        <ele>917.6221</ele>
        <time>2016-11-16T09:28:40Z</time>
      </trkpt>
      <trkpt lat="45.52001" lon="6.04258">
        <ele>917.1121</ele>
        <time>2016-11-16T09:28:45Z</time>
      </trkpt>
      <trkpt lat="45.51995" lon="6.04248">
        <ele>918.00256</ele>
        <time>2016-11-16T09:28:53Z</time>
      </trkpt>
      <trkpt lat="45.51983" lon="6.04243">
        <ele>918.00256</ele>
        <time>2016-11-16T09:28:58Z</time>
      </trkpt>
      <trkpt lat="45.51979" lon="6.04225">
        <ele>918.20605</ele>
        <time>2016-11-16T09:29:02Z</time>
      </trkpt>
      <trkpt lat="45.51973" lon="6.04214">
        <ele>916.6048</ele>
        <time>2016-11-16T09:29:49Z</time>
      </trkpt>
      <trkpt lat="45.51967" lon="6.04205">
        <ele>916.9298</ele>
        <time>2016-11-16T09:29:53Z</time>
      </trkpt>
      <trkpt lat="45.51963" lon="6.04193">
        <ele>917.12006</ele>
        <time>2016-11-16T09:30:00Z</time>
      </trkpt>
      <trkpt lat="45.51957" lon="6.04176">
        <ele>916.8347</ele>
        <time>2016-11-16T09:30:26Z</time>
      </trkpt>
      <trkpt lat="45.5195" lon="6.04167">
        <ele>915.88873</ele>
        <time>2016-11-16T09:30:33Z</time>
      </trkpt>
      <trkpt lat="45.51949" lon="6.04154">
        <ele>916.6022</ele>
        <time>2016-11-16T09:30:38Z</time>
      </trkpt>
      <trkpt lat="45.51944" lon="6.04141">
        <ele>916.5123</ele>
        <time>2016-11-16T09:30:43Z</time>
      </trkpt>
      <trkpt lat="45.51942" lon="6.04128">
        <ele>920.06885</ele>
        <time>2016-11-16T09:30:50Z</time>
      </trkpt>
      <trkpt lat="45.51931" lon="6.04105">
        <ele>922.1906</ele>
        <time>2016-11-16T09:31:28Z</time>
      </trkpt>
      <trkpt lat="45.51925" lon="6.04096">
        <ele>922.58954</ele>
        <time>2016-11-16T09:31:33Z</time>
      </trkpt>
      <trkpt lat="45.51923" lon="6.0408">
        <ele>925.3745</ele>
        <time>2016-11-16T09:31:37Z</time>
      </trkpt>
      <trkpt lat="45.51915" lon="6.04072">
        <ele>924.86194</ele>
        <time>2016-11-16T09:31:43Z</time>
      </trkpt>
      <trkpt lat="45.51922" lon="6.04058">
        <ele>930.5719</ele>
        <time>2016-11-16T09:32:20Z</time>
      </trkpt>
      <trkpt lat="45.51914" lon="6.04045">
        <ele>930.15967</ele>
        <time>2016-11-16T09:32:23Z</time>
      </trkpt>
      <trkpt lat="45.51908" lon="6.04034">
        <ele>929.869</ele>
        <time>2016-11-16T09:32:26Z</time>
      </trkpt>
      <trkpt lat="45.51901" lon="6.04026">
        <ele>928.35236</ele>
        <time>2016-11-16T09:32:30Z</time>
      </trkpt>
      <trkpt lat="45.51904" lon="6.04013">
        <ele>931.4042</ele>
        <time>2016-11-16T09:32:42Z</time>
      </trkpt>
      <trkpt lat="45.51906" lon="6.04">
        <ele>933.3225</ele>
        <time>2016-11-16T09:32:57Z</time>
      </trkpt>
      <trkpt lat="45.51906" lon="6.03983">
        <ele>937.669</ele>
        <time>2016-11-16T09:33:31Z</time>
      </trkpt>
      <trkpt lat="45.51905" lon="6.03969">
        <ele>939.7617</ele>
        <time>2016-11-16T09:33:37Z</time>
      </trkpt>
      <trkpt lat="45.51902" lon="6.0396">
        <ele>939.42615</ele>
        <time>2016-11-16T09:33:44Z</time>
      </trkpt>
      <trkpt lat="45.51902" lon="6.0396">
        <ele>939.42615</ele>
        <time>2016-11-16T09:33:44Z</time>
      </trkpt>
      <trkpt lat="45.51894" lon="6.03953">
        <ele>946.5576</ele>
        <time>2016-11-16T09:36:04Z</time>
      </trkpt>
      <trkpt lat="45.51893" lon="6.03938">
        <ele>949.45624</ele>
        <time>2016-11-16T09:36:14Z</time>
      </trkpt>
      <trkpt lat="45.51887" lon="6.03927">
        <ele>948.7481</ele>
        <time>2016-11-16T09:36:22Z</time>
      </trkpt>
      <trkpt lat="45.51883" lon="6.03913">
        <ele>950.3414</ele>
        <time>2016-11-16T09:36:29Z</time>
      </trkpt>
      <trkpt lat="45.51883" lon="6.03899">
        <ele>952.2517</ele>
        <time>2016-11-16T09:36:41Z</time>
      </trkpt>
      <trkpt lat="45.51878" lon="6.03886">
        <ele>960.493</ele>
        <time>2016-11-16T09:37:17Z</time>
      </trkpt>
      <trkpt lat="45.51872" lon="6.03875">
        <ele>964.34015</ele>
        <time>2016-11-16T09:38:01Z</time>
      </trkpt>
      <trkpt lat="45.51862" lon="6.03871">
        <ele>964.0627</ele>
        <time>2016-11-16T09:38:08Z</time>
      </trkpt>
      <trkpt lat="45.51854" lon="6.03864">
        <ele>967.14886</ele>
        <time>2016-11-16T09:38:17Z</time>
      </trkpt>
      <trkpt lat="45.51845" lon="6.03853">
        <ele>972.1375</ele>
        <time>2016-11-16T09:38:54Z</time>
      </trkpt>
      <trkpt lat="45.51836" lon="6.03846">
        <ele>977.2476</ele>
        <time>2016-11-16T09:39:22Z</time>
      </trkpt>
      <trkpt lat="45.51827" lon="6.03844">
        <ele>977.9082</ele>
        <time>2016-11-16T09:39:26Z</time>
      </trkpt>
      <trkpt lat="45.51806" lon="6.03825">
        <ele>982.2072</ele>
        <time>2016-11-16T09:40:32Z</time>
      </trkpt>
      <trkpt lat="45.518" lon="6.03815">
        <ele>983.7239</ele>
        <time>2016-11-16T09:40:43Z</time>
      </trkpt>
      <trkpt lat="45.51798" lon="6.03803">
        <ele>986.62775</ele>
        <time>2016-11-16T09:41:07Z</time>
      </trkpt>
      <trkpt lat="45.51796" lon="6.03789">
        <ele>989.27264</ele>
        <time>2016-11-16T09:41:23Z</time>
      </trkpt>
      <trkpt lat="45.51794" lon="6.03774">
        <ele>994.5413</ele>
        <time>2016-11-16T09:41:49Z</time>
      </trkpt>
      <trkpt lat="45.51788" lon="6.0376">
        <ele>994.48846</ele>
        <time>2016-11-16T09:41:56Z</time>
      </trkpt>
      <trkpt lat="45.51797" lon="6.03755">
        <ele>997.1043</ele>
        <time>2016-11-16T09:42:06Z</time>
      </trkpt>
      <trkpt lat="45.51805" lon="6.03747">
        <ele>998.7452</ele>
        <time>2016-11-16T09:42:15Z</time>
      </trkpt>
      <trkpt lat="45.51798" lon="6.03725">
        <ele>1002.2039</ele>
        <time>2016-11-16T09:42:51Z</time>
      </trkpt>
      <trkpt lat="45.51799" lon="6.03708">
        <ele>1000.76654</ele>
        <time>2016-11-16T09:44:52Z</time>
      </trkpt>
      <trkpt lat="45.51793" lon="6.03698">
        <ele>1001.31085</ele>
        <time>2016-11-16T09:45:02Z</time>
      </trkpt>
      <trkpt lat="45.51796" lon="6.03702">
        <ele>1000.8035</ele>
        <time>2016-11-16T09:45:37Z</time>
      </trkpt>
      <trkpt lat="45.51799" lon="6.03679">
        <ele>1000.8326</ele>
        <time>2016-11-16T09:46:02Z</time>
      </trkpt>
      <trkpt lat="45.51799" lon="6.03663">
        <ele>999.67</ele>
        <time>2016-11-16T09:48:30Z</time>
      </trkpt>
      <trkpt lat="45.51798" lon="6.03647">
        <ele>999.2499</ele>
        <time>2016-11-16T09:48:49Z</time>
      </trkpt>
      <trkpt lat="45.5179" lon="6.0364">
        <ele>999.2842</ele>
        <time>2016-11-16T09:49:37Z</time>
      </trkpt>
      <trkpt lat="45.51784" lon="6.0363">
        <ele>998.80334</ele>
        <time>2016-11-16T09:49:46Z</time>
      </trkpt>
      <trkpt lat="45.51779" lon="6.03618">
        <ele>997.11755</ele>
        <time>2016-11-16T09:49:54Z</time>
      </trkpt>
      <trkpt lat="45.51775" lon="6.03605">
        <ele>995.75415</ele>
        <time>2016-11-16T09:50:02Z</time>
      </trkpt>
      <trkpt lat="45.51773" lon="6.03593">
        <ele>995.6802</ele>
        <time>2016-11-16T09:50:13Z</time>
      </trkpt>
      <trkpt lat="45.5177" lon="6.0358">
        <ele>995.6617</ele>
        <time>2016-11-16T09:50:22Z</time>
      </trkpt>
      <trkpt lat="45.51768" lon="6.03566">
        <ele>992.5913</ele>
        <time>2016-11-16T09:50:33Z</time>
      </trkpt>
      <trkpt lat="45.51763" lon="6.03554">
        <ele>993.92834</ele>
        <time>2016-11-16T09:50:45Z</time>
      </trkpt>
      <trkpt lat="45.51761" lon="6.03537">
        <ele>994.08154</ele>
        <time>2016-11-16T09:51:32Z</time>
      </trkpt>
      <trkpt lat="45.51759" lon="6.03523">
        <ele>992.86346</ele>
        <time>2016-11-16T09:51:43Z</time>
      </trkpt>
      <trkpt lat="45.51758" lon="6.03506">
        <ele>994.77386</ele>
        <time>2016-11-16T09:52:03Z</time>
      </trkpt>
      <trkpt lat="45.51759" lon="6.03492">
        <ele>995.622</ele>
        <time>2016-11-16T09:52:10Z</time>
      </trkpt>
      <trkpt lat="45.51761" lon="6.03476">
        <ele>997.21265</ele>
        <time>2016-11-16T09:52:20Z</time>
      </trkpt>
      <trkpt lat="45.51764" lon="6.03461">
        <ele>995.6564</ele>
        <time>2016-11-16T09:52:35Z</time>
      </trkpt>
      <trkpt lat="45.5177" lon="6.03441">
        <ele>997.89966</ele>
        <time>2016-11-16T09:52:52Z</time>
      </trkpt>
      <trkpt lat="45.51775" lon="6.0343">
        <ele>996.11084</ele>
        <time>2016-11-16T09:53:00Z</time>
      </trkpt>
      <trkpt lat="45.51782" lon="6.03421">
        <ele>996.2218</ele>
        <time>2016-11-16T09:53:13Z</time>
      </trkpt>
      <trkpt lat="45.51786" lon="6.03408">
        <ele>996.1901</ele>
        <time>2016-11-16T09:53:20Z</time>
      </trkpt>
      <trkpt lat="45.51786" lon="6.03407">
        <ele>996.5098</ele>
        <time>2016-11-16T09:53:39Z</time>
      </trkpt>
      <trkpt lat="45.51794" lon="6.03402">
        <ele>996.07385</ele>
        <time>2016-11-16T09:53:44Z</time>
      </trkpt>
      <trkpt lat="45.51801" lon="6.03389">
        <ele>995.0275</ele>
        <time>2016-11-16T09:53:52Z</time>
      </trkpt>
      <trkpt lat="45.51799" lon="6.03375">
        <ele>994.9826</ele>
        <time>2016-11-16T09:53:55Z</time>
      </trkpt>
      <trkpt lat="45.51802" lon="6.0337">
        <ele>995.1808</ele>
        <time>2016-11-16T09:54:04Z</time>
      </trkpt>
      <trkpt lat="45.51802" lon="6.0337">
        <ele>995.1808</ele>
        <time>2016-11-16T09:54:04Z</time>
      </trkpt>
      <trkpt lat="45.51807" lon="6.03359">
        <ele>994.5387</ele>
        <time>2016-11-16T09:54:15Z</time>
      </trkpt>
      <trkpt lat="45.51814" lon="6.03349">
        <ele>994.3828</ele>
        <time>2016-11-16T09:54:27Z</time>
      </trkpt>
      <trkpt lat="45.5182" lon="6.03339">
        <ele>993.2387</ele>
        <time>2016-11-16T09:54:34Z</time>
      </trkpt>
      <trkpt lat="45.51825" lon="6.03328">
        <ele>994.071</ele>
        <time>2016-11-16T09:54:42Z</time>
      </trkpt>
      <trkpt lat="45.51827" lon="6.03323">
        <ele>995.2521</ele>
        <time>2016-11-16T09:56:48Z</time>
      </trkpt>
      <trkpt lat="45.51832" lon="6.03324">
        <ele>995.046</ele>
        <time>2016-11-16T09:56:55Z</time>
      </trkpt>
      <trkpt lat="45.51832" lon="6.03324">
        <ele>995.046</ele>
        <time>2016-11-16T09:56:55Z</time>
      </trkpt>
      <trkpt lat="45.51822" lon="6.03327">
        <ele>997.63544</ele>
        <time>2016-11-16T09:57:26Z</time>
      </trkpt>
      <trkpt lat="45.51813" lon="6.0333">
        <ele>997.609</ele>
        <time>2016-11-16T09:57:33Z</time>
      </trkpt>
      <trkpt lat="45.51807" lon="6.0334">
        <ele>998.40436</ele>
        <time>2016-11-16T09:57:42Z</time>
      </trkpt>
      <trkpt lat="45.51797" lon="6.03347">
        <ele>998.38055</ele>
        <time>2016-11-16T09:57:51Z</time>
      </trkpt>
      <trkpt lat="45.51789" lon="6.03353">
        <ele>1001.6279</ele>
        <time>2016-11-16T09:58:10Z</time>
      </trkpt>
      <trkpt lat="45.51783" lon="6.03352">
        <ele>1003.39825</ele>
        <time>2016-11-16T09:59:04Z</time>
      </trkpt>
      <trkpt lat="45.51774" lon="6.03348">
        <ele>1005.33765</ele>
        <time>2016-11-16T09:59:17Z</time>
      </trkpt>
      <trkpt lat="45.51765" lon="6.0334">
        <ele>1008.8017</ele>
        <time>2016-11-16T09:59:33Z</time>
      </trkpt>
      <trkpt lat="45.51759" lon="6.03331">
        <ele>1012.1521</ele>
        <time>2016-11-16T09:59:55Z</time>
      </trkpt>
      <trkpt lat="45.5176" lon="6.03316">
        <ele>1013.4283</ele>
        <time>2016-11-16T10:00:13Z</time>
      </trkpt>
      <trkpt lat="45.51751" lon="6.03312">
        <ele>1016.68884</ele>
        <time>2016-11-16T10:00:33Z</time>
      </trkpt>
      <trkpt lat="45.51746" lon="6.03302">
        <ele>1021.62994</ele>
        <time>2016-11-16T10:00:52Z</time>
      </trkpt>
      <trkpt lat="45.51747" lon="6.033">
        <ele>1022.03156</ele>
        <time>2016-11-16T10:01:02Z</time>
      </trkpt>
      <trkpt lat="45.51747" lon="6.033">
        <ele>1022.03156</ele>
        <time>2016-11-16T10:01:02Z</time>
      </trkpt>
      <trkpt lat="45.51743" lon="6.03289">
        <ele>1026.0531</ele>
        <time>2016-11-16T10:01:57Z</time>
      </trkpt>
      <trkpt lat="45.51737" lon="6.03279">
        <ele>1028.4021</ele>
        <time>2016-11-16T10:02:11Z</time>
      </trkpt>
      <trkpt lat="45.51736" lon="6.03266">
        <ele>1029.7549</ele>
        <time>2016-11-16T10:02:22Z</time>
      </trkpt>
      <trkpt lat="45.51735" lon="6.03252">
        <ele>1030.4446</ele>
        <time>2016-11-16T10:02:32Z</time>
      </trkpt>
      <trkpt lat="45.51735" lon="6.03239">
        <ele>1031.0892</ele>
        <time>2016-11-16T10:02:44Z</time>
      </trkpt>
      <trkpt lat="45.51735" lon="6.03225">
        <ele>1028.5923</ele>
        <time>2016-11-16T10:02:57Z</time>
      </trkpt>
      <trkpt lat="45.51738" lon="6.03212">
        <ele>1028.1431</ele>
        <time>2016-11-16T10:03:08Z</time>
      </trkpt>
      <trkpt lat="45.51738" lon="6.03199">
        <ele>1027.3743</ele>
        <time>2016-11-16T10:03:18Z</time>
      </trkpt>
      <trkpt lat="45.51739" lon="6.03185">
        <ele>1026.2487</ele>
        <time>2016-11-16T10:03:27Z</time>
      </trkpt>
      <trkpt lat="45.51738" lon="6.03172">
        <ele>1025.8126</ele>
        <time>2016-11-16T10:03:39Z</time>
      </trkpt>
      <trkpt lat="45.5174" lon="6.03159">
        <ele>1025.9764</ele>
        <time>2016-11-16T10:03:48Z</time>
      </trkpt>
      <trkpt lat="45.51742" lon="6.03146">
        <ele>1026.4125</ele>
        <time>2016-11-16T10:04:05Z</time>
      </trkpt>
      <trkpt lat="45.51744" lon="6.03134">
        <ele>1025.892</ele>
        <time>2016-11-16T10:04:14Z</time>
      </trkpt>
      <trkpt lat="45.51749" lon="6.03122">
        <ele>1025.2129</ele>
        <time>2016-11-16T10:04:25Z</time>
      </trkpt>
      <trkpt lat="45.51749" lon="6.03116">
        <ele>1023.6777</ele>
        <time>2016-11-16T10:10:50Z</time>
      </trkpt>
      <trkpt lat="45.51756" lon="6.03115">
        <ele>1022.56</ele>
        <time>2016-11-16T10:11:05Z</time>
      </trkpt>
      <trkpt lat="45.51756" lon="6.03115">
        <ele>1022.56</ele>
        <time>2016-11-16T10:11:05Z</time>
      </trkpt>
      <trkpt lat="45.51756" lon="6.03115">
        <ele>1023.2655</ele>
        <time>2016-11-16T10:11:57Z</time>
      </trkpt>
      <trkpt lat="45.51749" lon="6.03129">
        <ele>1026.1165</ele>
        <time>2016-11-16T10:16:38Z</time>
      </trkpt>
      <trkpt lat="45.51738" lon="6.03138">
        <ele>1033.1793</ele>
        <time>2016-11-16T10:17:16Z</time>
      </trkpt>
      <trkpt lat="45.51718" lon="6.03146">
        <ele>1034.3287</ele>
        <time>2016-11-16T10:17:43Z</time>
      </trkpt>
      <trkpt lat="45.51709" lon="6.03145">
        <ele>1036.5323</ele>
        <time>2016-11-16T10:18:23Z</time>
      </trkpt>
      <trkpt lat="45.51699" lon="6.03147">
        <ele>1039.4944</ele>
        <time>2016-11-16T10:18:31Z</time>
      </trkpt>
      <trkpt lat="45.5169" lon="6.03149">
        <ele>1040.9106</ele>
        <time>2016-11-16T10:18:41Z</time>
      </trkpt>
      <trkpt lat="45.51687" lon="6.03154">
        <ele>1042.9901</ele>
        <time>2016-11-16T10:19:58Z</time>
      </trkpt>
      <trkpt lat="45.51688" lon="6.03153">
        <ele>1041.1299</ele>
        <time>2016-11-16T10:20:15Z</time>
      </trkpt>
      <trkpt lat="45.5169" lon="6.03156">
        <ele>1041.3254</ele>
        <time>2016-11-16T10:22:00Z</time>
      </trkpt>
      <trkpt lat="45.51691" lon="6.03151">
        <ele>1041.6901</ele>
        <time>2016-11-16T10:24:47Z</time>
      </trkpt>
      <trkpt lat="45.51685" lon="6.03161">
        <ele>1042.0098</ele>
        <time>2016-11-16T10:24:55Z</time>
      </trkpt>
      <trkpt lat="45.51679" lon="6.03172">
        <ele>1041.8802</ele>
        <time>2016-11-16T10:25:06Z</time>
      </trkpt>
      <trkpt lat="45.51677" lon="6.03185">
        <ele>1042.9108</ele>
        <time>2016-11-16T10:25:18Z</time>
      </trkpt>
      <trkpt lat="45.51676" lon="6.03199">
        <ele>1042.9346</ele>
        <time>2016-11-16T10:25:31Z</time>
      </trkpt>
      <trkpt lat="45.51675" lon="6.03212">
        <ele>1041.9993</ele>
        <time>2016-11-16T10:25:40Z</time>
      </trkpt>
      <trkpt lat="45.51666" lon="6.03222">
        <ele>1043.352</ele>
        <time>2016-11-16T10:25:49Z</time>
      </trkpt>
      <trkpt lat="45.51662" lon="6.03234">
        <ele>1044.4434</ele>
        <time>2016-11-16T10:25:58Z</time>
      </trkpt>
      <trkpt lat="45.51663" lon="6.03231">
        <ele>1043.4683</ele>
        <time>2016-11-16T10:26:39Z</time>
      </trkpt>
      <trkpt lat="45.51671" lon="6.03223">
        <ele>1041.6794</ele>
        <time>2016-11-16T10:26:48Z</time>
      </trkpt>
      <trkpt lat="45.51674" lon="6.03209">
        <ele>1040.9978</ele>
        <time>2016-11-16T10:26:59Z</time>
      </trkpt>
      <trkpt lat="45.51673" lon="6.03196">
        <ele>1042.9822</ele>
        <time>2016-11-16T10:27:27Z</time>
      </trkpt>
      <trkpt lat="45.51679" lon="6.03183">
        <ele>1041.447</ele>
        <time>2016-11-16T10:27:33Z</time>
      </trkpt>
      <trkpt lat="45.51682" lon="6.03169">
        <ele>1040.398</ele>
        <time>2016-11-16T10:27:41Z</time>
      </trkpt>
      <trkpt lat="45.51687" lon="6.03157">
        <ele>1039.7771</ele>
        <time>2016-11-16T10:27:50Z</time>
      </trkpt>
      <trkpt lat="45.51694" lon="6.0315">
        <ele>1038.0569</ele>
        <time>2016-11-16T10:28:05Z</time>
      </trkpt>
      <trkpt lat="45.51708" lon="6.03145">
        <ele>1035.1794</ele>
        <time>2016-11-16T10:29:23Z</time>
      </trkpt>
      <trkpt lat="45.5172" lon="6.0314">
        <ele>1031.771</ele>
        <time>2016-11-16T10:30:20Z</time>
      </trkpt>
      <trkpt lat="45.5173" lon="6.03134">
        <ele>1029.3242</ele>
        <time>2016-11-16T10:30:29Z</time>
      </trkpt>
      <trkpt lat="45.5174" lon="6.03135">
        <ele>1027.8657</ele>
        <time>2016-11-16T10:30:37Z</time>
      </trkpt>
      <trkpt lat="45.51748" lon="6.03128">
        <ele>1026.3385</ele>
        <time>2016-11-16T10:30:45Z</time>
      </trkpt>
      <trkpt lat="45.51755" lon="6.03119">
        <ele>1024.0238</ele>
        <time>2016-11-16T10:30:57Z</time>
      </trkpt>
      <trkpt lat="45.51764" lon="6.03119">
        <ele>1020.6919</ele>
        <time>2016-11-16T10:31:10Z</time>
      </trkpt>
      <trkpt lat="45.51774" lon="6.03117">
        <ele>1014.871</ele>
        <time>2016-11-16T10:31:26Z</time>
      </trkpt>
      <trkpt lat="45.5178" lon="6.03112">
        <ele>1012.6356</ele>
        <time>2016-11-16T10:31:50Z</time>
      </trkpt>
      <trkpt lat="45.5178" lon="6.03112">
        <ele>1012.6356</ele>
        <time>2016-11-16T10:31:50Z</time>
      </trkpt>
      <trkpt lat="45.51789" lon="6.03111">
        <ele>1010.284</ele>
        <time>2016-11-16T10:32:25Z</time>
      </trkpt>
      <trkpt lat="45.51788" lon="6.0311">
        <ele>1008.1807</ele>
        <time>2016-11-16T10:34:31Z</time>
      </trkpt>
      <trkpt lat="45.51781" lon="6.03112">
        <ele>1015.595</ele>
        <time>2016-11-16T10:36:04Z</time>
      </trkpt>
      <trkpt lat="45.51767" lon="6.03119">
        <ele>1020.9852</ele>
        <time>2016-11-16T10:36:37Z</time>
      </trkpt>
      <trkpt lat="45.51757" lon="6.03117">
        <ele>1022.79517</ele>
        <time>2016-11-16T10:36:59Z</time>
      </trkpt>
      <trkpt lat="45.51749" lon="6.03122">
        <ele>1028.2435</ele>
        <time>2016-11-16T10:38:30Z</time>
      </trkpt>
      <trkpt lat="45.5174" lon="6.03124">
        <ele>1029.1683</ele>
        <time>2016-11-16T10:38:39Z</time>
      </trkpt>
      <trkpt lat="45.51731" lon="6.03132">
        <ele>1029.9452</ele>
        <time>2016-11-16T10:38:45Z</time>
      </trkpt>
      <trkpt lat="45.51724" lon="6.03141">
        <ele>1036.0647</ele>
        <time>2016-11-16T10:39:20Z</time>
      </trkpt>
      <trkpt lat="45.51712" lon="6.03144">
        <ele>1038.3793</ele>
        <time>2016-11-16T10:39:47Z</time>
      </trkpt>
      <trkpt lat="45.51703" lon="6.03148">
        <ele>1039.5128</ele>
        <time>2016-11-16T10:39:54Z</time>
      </trkpt>
      <trkpt lat="45.51693" lon="6.03148">
        <ele>1040.6516</ele>
        <time>2016-11-16T10:40:04Z</time>
      </trkpt>
      <trkpt lat="45.51683" lon="6.03158">
        <ele>1044.0232</ele>
        <time>2016-11-16T10:42:09Z</time>
      </trkpt>
      <trkpt lat="45.51679" lon="6.0317">
        <ele>1044.0549</ele>
        <time>2016-11-16T10:42:22Z</time>
      </trkpt>
      <trkpt lat="45.51675" lon="6.03182">
        <ele>1044.4434</ele>
        <time>2016-11-16T10:42:29Z</time>
      </trkpt>
      <trkpt lat="45.51671" lon="6.03194">
        <ele>1044.3456</ele>
        <time>2016-11-16T10:42:37Z</time>
      </trkpt>
      <trkpt lat="45.51677" lon="6.03205">
        <ele>1042.8896</ele>
        <time>2016-11-16T10:42:49Z</time>
      </trkpt>
      <trkpt lat="45.51671" lon="6.03214">
        <ele>1043.981</ele>
        <time>2016-11-16T10:42:58Z</time>
      </trkpt>
      <trkpt lat="45.51667" lon="6.03226">
        <ele>1045.1171</ele>
        <time>2016-11-16T10:43:07Z</time>
      </trkpt>
      <trkpt lat="45.51662" lon="6.03239">
        <ele>1045.3364</ele>
        <time>2016-11-16T10:43:17Z</time>
      </trkpt>
      <trkpt lat="45.51656" lon="6.0325">
        <ele>1045.3787</ele>
        <time>2016-11-16T10:43:26Z</time>
      </trkpt>
      <trkpt lat="45.51653" lon="6.03262">
        <ele>1044.985</ele>
        <time>2016-11-16T10:43:36Z</time>
      </trkpt>
      <trkpt lat="45.51643" lon="6.03264">
        <ele>1047.4397</ele>
        <time>2016-11-16T10:43:55Z</time>
      </trkpt>
      <trkpt lat="45.51635" lon="6.03272">
        <ele>1050.5311</ele>
        <time>2016-11-16T10:44:11Z</time>
      </trkpt>
      <trkpt lat="45.51632" lon="6.03285">
        <ele>1046.9297</ele>
        <time>2016-11-16T10:45:25Z</time>
      </trkpt>
      <trkpt lat="45.51623" lon="6.0329">
        <ele>1048.1583</ele>
        <time>2016-11-16T10:45:35Z</time>
      </trkpt>
      <trkpt lat="45.51619" lon="6.03302">
        <ele>1049.2047</ele>
        <time>2016-11-16T10:45:46Z</time>
      </trkpt>
      <trkpt lat="45.51616" lon="6.03308">
        <ele>1047.5348</ele>
        <time>2016-11-16T10:46:02Z</time>
      </trkpt>
      <trkpt lat="45.51616" lon="6.03308">
        <ele>1047.5348</ele>
        <time>2016-11-16T10:46:02Z</time>
      </trkpt>
      <trkpt lat="45.51611" lon="6.0332">
        <ele>1047.2256</ele>
        <time>2016-11-16T10:46:22Z</time>
      </trkpt>
      <trkpt lat="45.51602" lon="6.03325">
        <ele>1048.9563</ele>
        <time>2016-11-16T10:46:36Z</time>
      </trkpt>
      <trkpt lat="45.51593" lon="6.03325">
        <ele>1051.2524</ele>
        <time>2016-11-16T10:46:50Z</time>
      </trkpt>
      <trkpt lat="45.51584" lon="6.03331">
        <ele>1051.3239</ele>
        <time>2016-11-16T10:47:02Z</time>
      </trkpt>
      <trkpt lat="45.51576" lon="6.03334">
        <ele>1050.9697</ele>
        <time>2016-11-16T10:47:11Z</time>
      </trkpt>
      <trkpt lat="45.51567" lon="6.03341">
        <ele>1055.3031</ele>
        <time>2016-11-16T10:47:23Z</time>
      </trkpt>
      <trkpt lat="45.51563" lon="6.03353">
        <ele>1055.3982</ele>
        <time>2016-11-16T10:47:39Z</time>
      </trkpt>
      <trkpt lat="45.51553" lon="6.03357">
        <ele>1060.326</ele>
        <time>2016-11-16T10:47:57Z</time>
      </trkpt>
      <trkpt lat="45.51546" lon="6.03367">
        <ele>1062.5878</ele>
        <time>2016-11-16T10:48:09Z</time>
      </trkpt>
      <trkpt lat="45.51536" lon="6.03368">
        <ele>1062.1149</ele>
        <time>2016-11-16T10:48:21Z</time>
      </trkpt>
      <trkpt lat="45.51532" lon="6.0338">
        <ele>1061.0896</ele>
        <time>2016-11-16T10:49:45Z</time>
      </trkpt>
      <trkpt lat="45.51525" lon="6.03389">
        <ele>1062.1149</ele>
        <time>2016-11-16T10:49:55Z</time>
      </trkpt>
      <trkpt lat="45.5152" lon="6.03401">
        <ele>1060.8307</ele>
        <time>2016-11-16T10:50:06Z</time>
      </trkpt>
      <trkpt lat="45.51527" lon="6.0341">
        <ele>1062.5297</ele>
        <time>2016-11-16T10:50:25Z</time>
      </trkpt>
      <trkpt lat="45.51534" lon="6.03418">
        <ele>1057.837</ele>
        <time>2016-11-16T10:50:41Z</time>
      </trkpt>
      <trkpt lat="45.51535" lon="6.03431">
        <ele>1053.8472</ele>
        <time>2016-11-16T10:51:17Z</time>
      </trkpt>
      <trkpt lat="45.51538" lon="6.03433">
        <ele>1048.8585</ele>
        <time>2016-11-16T10:51:44Z</time>
      </trkpt>
      <trkpt lat="45.51543" lon="6.03439">
        <ele>1044.7604</ele>
        <time>2016-11-16T10:52:04Z</time>
      </trkpt>
      <trkpt lat="45.51546" lon="6.03452">
        <ele>1038.2842</ele>
        <time>2016-11-16T10:52:30Z</time>
      </trkpt>
      <trkpt lat="45.51551" lon="6.03462">
        <ele>1035.169</ele>
        <time>2016-11-16T10:52:43Z</time>
      </trkpt>
      <trkpt lat="45.5156" lon="6.03467">
        <ele>1034.7013</ele>
        <time>2016-11-16T10:52:58Z</time>
      </trkpt>
      <trkpt lat="45.5157" lon="6.03465">
        <ele>1032.5663</ele>
        <time>2016-11-16T10:53:10Z</time>
      </trkpt>
      <trkpt lat="45.5158" lon="6.03465">
        <ele>1031.372</ele>
        <time>2016-11-16T10:53:20Z</time>
      </trkpt>
      <trkpt lat="45.51585" lon="6.03475">
        <ele>1029.4749</ele>
        <time>2016-11-16T10:53:30Z</time>
      </trkpt>
      <trkpt lat="45.51591" lon="6.03482">
        <ele>1027.5724</ele>
        <time>2016-11-16T10:54:05Z</time>
      </trkpt>
      <trkpt lat="45.51585" lon="6.03503">
        <ele>1026.0663</ele>
        <time>2016-11-16T10:55:31Z</time>
      </trkpt>
      <trkpt lat="45.51589" lon="6.03516">
        <ele>1026.1826</ele>
        <time>2016-11-16T10:55:36Z</time>
      </trkpt>
      <trkpt lat="45.51589" lon="6.03529">
        <ele>1027.6173</ele>
        <time>2016-11-16T10:55:43Z</time>
      </trkpt>
      <trkpt lat="45.51591" lon="6.03548">
        <ele>1029.2529</ele>
        <time>2016-11-16T10:56:19Z</time>
      </trkpt>
      <trkpt lat="45.51597" lon="6.03558">
        <ele>1030.4921</ele>
        <time>2016-11-16T10:56:33Z</time>
      </trkpt>
      <trkpt lat="45.51595" lon="6.03571">
        <ele>1031.8767</ele>
        <time>2016-11-16T10:56:43Z</time>
      </trkpt>
      <trkpt lat="45.51593" lon="6.03584">
        <ele>1033.0314</ele>
        <time>2016-11-16T10:56:54Z</time>
      </trkpt>
      <trkpt lat="45.5159" lon="6.03597">
        <ele>1036.8785</ele>
        <time>2016-11-16T10:57:12Z</time>
      </trkpt>
      <trkpt lat="45.5159" lon="6.03611">
        <ele>1039.209</ele>
        <time>2016-11-16T10:57:24Z</time>
      </trkpt>
      <trkpt lat="45.51587" lon="6.03623">
        <ele>1038.5933</ele>
        <time>2016-11-16T10:57:35Z</time>
      </trkpt>
      <trkpt lat="45.51588" lon="6.03637">
        <ele>1038.4031</ele>
        <time>2016-11-16T10:57:49Z</time>
      </trkpt>
      <trkpt lat="45.51585" lon="6.0365">
        <ele>1037.8297</ele>
        <time>2016-11-16T10:57:59Z</time>
      </trkpt>
      <trkpt lat="45.51583" lon="6.03663">
        <ele>1037.4095</ele>
        <time>2016-11-16T10:58:08Z</time>
      </trkpt>
      <trkpt lat="45.5158" lon="6.03675">
        <ele>1034.3894</ele>
        <time>2016-11-16T10:58:19Z</time>
      </trkpt>
      <trkpt lat="45.51579" lon="6.0369">
        <ele>1034.0143</ele>
        <time>2016-11-16T10:58:29Z</time>
      </trkpt>
      <trkpt lat="45.51576" lon="6.03703">
        <ele>1032.1937</ele>
        <time>2016-11-16T10:59:02Z</time>
      </trkpt>
      <trkpt lat="45.51576" lon="6.03716">
        <ele>1033.8954</ele>
        <time>2016-11-16T10:59:10Z</time>
      </trkpt>
      <trkpt lat="45.51571" lon="6.03728">
        <ele>1033.1292</ele>
        <time>2016-11-16T10:59:23Z</time>
      </trkpt>
      <trkpt lat="45.51569" lon="6.03743">
        <ele>1032.2043</ele>
        <time>2016-11-16T10:59:38Z</time>
      </trkpt>
      <trkpt lat="45.51572" lon="6.03755">
        <ele>1035.5045</ele>
        <time>2016-11-16T10:59:58Z</time>
      </trkpt>
      <trkpt lat="45.51569" lon="6.03771">
        <ele>1039.1746</ele>
        <time>2016-11-16T11:00:24Z</time>
      </trkpt>
      <trkpt lat="45.51559" lon="6.03777">
        <ele>1040.0651</ele>
        <time>2016-11-16T11:00:29Z</time>
      </trkpt>
      <trkpt lat="45.51553" lon="6.03788">
        <ele>1040.1998</ele>
        <time>2016-11-16T11:00:36Z</time>
      </trkpt>
      <trkpt lat="45.51546" lon="6.03797">
        <ele>1041.3783</ele>
        <time>2016-11-16T11:00:47Z</time>
      </trkpt>
      <trkpt lat="45.51544" lon="6.0381">
        <ele>1043.2543</ele>
        <time>2016-11-16T11:00:58Z</time>
      </trkpt>
      <trkpt lat="45.5154" lon="6.03822">
        <ele>1043.0905</ele>
        <time>2016-11-16T11:01:09Z</time>
      </trkpt>
      <trkpt lat="45.5154" lon="6.03835">
        <ele>1043.0006</ele>
        <time>2016-11-16T11:01:20Z</time>
      </trkpt>
      <trkpt lat="45.51544" lon="6.03848">
        <ele>1044.4856</ele>
        <time>2016-11-16T11:01:30Z</time>
      </trkpt>
      <trkpt lat="45.51545" lon="6.03863">
        <ele>1040.7283</ele>
        <time>2016-11-16T11:01:49Z</time>
      </trkpt>
      <trkpt lat="45.51545" lon="6.03878">
        <ele>1038.921</ele>
        <time>2016-11-16T11:01:57Z</time>
      </trkpt>
      <trkpt lat="45.5155" lon="6.03889">
        <ele>1037.2616</ele>
        <time>2016-11-16T11:02:07Z</time>
      </trkpt>
      <trkpt lat="45.51555" lon="6.039">
        <ele>1036.3104</ele>
        <time>2016-11-16T11:02:16Z</time>
      </trkpt>
      <trkpt lat="45.51561" lon="6.03911">
        <ele>1035.132</ele>
        <time>2016-11-16T11:02:25Z</time>
      </trkpt>
      <trkpt lat="45.5156" lon="6.03924">
        <ele>1033.8927</ele>
        <time>2016-11-16T11:02:34Z</time>
      </trkpt>
      <trkpt lat="45.51566" lon="6.03935">
        <ele>1034.1781</ele>
        <time>2016-11-16T11:02:44Z</time>
      </trkpt>
      <trkpt lat="45.5157" lon="6.03949">
        <ele>1034.1543</ele>
        <time>2016-11-16T11:03:00Z</time>
      </trkpt>
      <trkpt lat="45.51572" lon="6.03956">
        <ele>1031.5305</ele>
        <time>2016-11-16T11:03:21Z</time>
      </trkpt>
      <trkpt lat="45.51584" lon="6.03977">
        <ele>1031.5516</ele>
        <time>2016-11-16T11:03:41Z</time>
      </trkpt>
      <trkpt lat="45.51584" lon="6.0399">
        <ele>1029.8949</ele>
        <time>2016-11-16T11:03:51Z</time>
      </trkpt>
      <trkpt lat="45.5159" lon="6.04001">
        <ele>1029.3771</ele>
        <time>2016-11-16T11:04:05Z</time>
      </trkpt>
      <trkpt lat="45.51598" lon="6.04008">
        <ele>1029.4034</ele>
        <time>2016-11-16T11:04:10Z</time>
      </trkpt>
      <trkpt lat="45.51603" lon="6.0402">
        <ele>1031.8608</ele>
        <time>2016-11-16T11:04:21Z</time>
      </trkpt>
      <trkpt lat="45.51597" lon="6.04032">
        <ele>1033.5836</ele>
        <time>2016-11-16T11:04:32Z</time>
      </trkpt>
      <trkpt lat="45.51587" lon="6.04037">
        <ele>1033.8822</ele>
        <time>2016-11-16T11:04:37Z</time>
      </trkpt>
      <trkpt lat="45.51581" lon="6.04047">
        <ele>1034.836</ele>
        <time>2016-11-16T11:04:44Z</time>
      </trkpt>
      <trkpt lat="45.51575" lon="6.04061">
        <ele>1036.0647</ele>
        <time>2016-11-16T11:06:58Z</time>
      </trkpt>
      <trkpt lat="45.51576" lon="6.04075">
        <ele>1040.7415</ele>
        <time>2016-11-16T11:07:19Z</time>
      </trkpt>
      <trkpt lat="45.51577" lon="6.04088">
        <ele>1045.1647</ele>
        <time>2016-11-16T11:07:50Z</time>
      </trkpt>
      <trkpt lat="45.51577" lon="6.04103">
        <ele>1045.4183</ele>
        <time>2016-11-16T11:07:59Z</time>
      </trkpt>
      <trkpt lat="45.51574" lon="6.04116">
        <ele>1046.7183</ele>
        <time>2016-11-16T11:10:00Z</time>
      </trkpt>
      <trkpt lat="45.51571" lon="6.0413">
        <ele>1048.2799</ele>
        <time>2016-11-16T11:10:07Z</time>
      </trkpt>
      <trkpt lat="45.51568" lon="6.04142">
        <ele>1050.0027</ele>
        <time>2016-11-16T11:10:23Z</time>
      </trkpt>
      <trkpt lat="45.51567" lon="6.04155">
        <ele>1052.7136</ele>
        <time>2016-11-16T11:10:32Z</time>
      </trkpt>
      <trkpt lat="45.51564" lon="6.04168">
        <ele>1053.6648</ele>
        <time>2016-11-16T11:10:45Z</time>
      </trkpt>
      <trkpt lat="45.51568" lon="6.04181">
        <ele>1057.0786</ele>
        <time>2016-11-16T11:11:06Z</time>
      </trkpt>
      <trkpt lat="45.51571" lon="6.04193">
        <ele>1057.808</ele>
        <time>2016-11-16T11:11:22Z</time>
      </trkpt>
      <trkpt lat="45.51581" lon="6.04207">
        <ele>1058.2756</ele>
        <time>2016-11-16T11:11:51Z</time>
      </trkpt>
      <trkpt lat="45.51587" lon="6.04218">
        <ele>1063.3541</ele>
        <time>2016-11-16T11:12:20Z</time>
      </trkpt>
      <trkpt lat="45.51588" lon="6.04228">
        <ele>1067.5764</ele>
        <time>2016-11-16T11:13:25Z</time>
      </trkpt>
      <trkpt lat="45.51585" lon="6.0424">
        <ele>1069.9016</ele>
        <time>2016-11-16T11:13:41Z</time>
      </trkpt>
      <trkpt lat="45.51587" lon="6.04248">
        <ele>1073.3551</ele>
        <time>2016-11-16T11:14:07Z</time>
      </trkpt>
      <trkpt lat="45.51583" lon="6.0426">
        <ele>1078.6978</ele>
        <time>2016-11-16T11:14:35Z</time>
      </trkpt>
      <trkpt lat="45.51577" lon="6.0427">
        <ele>1083.4539</ele>
        <time>2016-11-16T11:15:01Z</time>
      </trkpt>
      <trkpt lat="45.51572" lon="6.04277">
        <ele>1086.7778</ele>
        <time>2016-11-16T11:15:45Z</time>
      </trkpt>
      <trkpt lat="45.51566" lon="6.04288">
        <ele>1100.0948</ele>
        <time>2016-11-16T11:18:38Z</time>
      </trkpt>
      <trkpt lat="45.51567" lon="6.04296">
        <ele>1104.3146</ele>
        <time>2016-11-16T11:19:17Z</time>
      </trkpt>
      <trkpt lat="45.51566" lon="6.04297">
        <ele>1104.9303</ele>
        <time>2016-11-16T11:19:25Z</time>
      </trkpt>
      <trkpt lat="45.51566" lon="6.04297">
        <ele>1104.9303</ele>
        <time>2016-11-16T11:19:25Z</time>
      </trkpt>
      <trkpt lat="45.51558" lon="6.04308">
        <ele>1111.1238</ele>
        <time>2016-11-16T11:20:46Z</time>
      </trkpt>
      <trkpt lat="45.51555" lon="6.04307">
        <ele>1114.7992</ele>
        <time>2016-11-16T11:21:08Z</time>
      </trkpt>
      <trkpt lat="45.51546" lon="6.04328">
        <ele>1121.9095</ele>
        <time>2016-11-16T11:26:04Z</time>
      </trkpt>
      <trkpt lat="45.51545" lon="6.04341">
        <ele>1123.4684</ele>
        <time>2016-11-16T11:26:21Z</time>
      </trkpt>
      <trkpt lat="45.51546" lon="6.04354">
        <ele>1124.5333</ele>
        <time>2016-11-16T11:26:38Z</time>
      </trkpt>
      <trkpt lat="45.51544" lon="6.04368">
        <ele>1126.8638</ele>
        <time>2016-11-16T11:26:53Z</time>
      </trkpt>
      <trkpt lat="45.51544" lon="6.04382">
        <ele>1128.8956</ele>
        <time>2016-11-16T11:27:10Z</time>
      </trkpt>
      <trkpt lat="45.51548" lon="6.04394">
        <ele>1130.5206</ele>
        <time>2016-11-16T11:27:18Z</time>
      </trkpt>
      <trkpt lat="45.51547" lon="6.04407">
        <ele>1130.4705</ele>
        <time>2016-11-16T11:27:28Z</time>
      </trkpt>
      <trkpt lat="45.51546" lon="6.04419">
        <ele>1129.263</ele>
        <time>2016-11-16T11:27:49Z</time>
      </trkpt>
      <trkpt lat="45.51546" lon="6.04433">
        <ele>1127.3949</ele>
        <time>2016-11-16T11:28:05Z</time>
      </trkpt>
      <trkpt lat="45.51543" lon="6.04446">
        <ele>1125.215</ele>
        <time>2016-11-16T11:28:19Z</time>
      </trkpt>
      <trkpt lat="45.51543" lon="6.04459">
        <ele>1129.543</ele>
        <time>2016-11-16T11:28:33Z</time>
      </trkpt>
      <trkpt lat="45.51543" lon="6.04472">
        <ele>1129.9579</ele>
        <time>2016-11-16T11:28:48Z</time>
      </trkpt>
      <trkpt lat="45.51543" lon="6.04487">
        <ele>1131.287</ele>
        <time>2016-11-16T11:31:03Z</time>
      </trkpt>
      <trkpt lat="45.51544" lon="6.04501">
        <ele>1126.4569</ele>
        <time>2016-11-16T11:31:26Z</time>
      </trkpt>
      <trkpt lat="45.51544" lon="6.04506">
        <ele>1127.342</ele>
        <time>2016-11-16T11:31:39Z</time>
      </trkpt>
      <trkpt lat="45.51544" lon="6.04506">
        <ele>1127.342</ele>
        <time>2016-11-16T11:31:39Z</time>
      </trkpt>
      <trkpt lat="45.51546" lon="6.04506">
        <ele>1127.0038</ele>
        <time>2016-11-16T11:32:10Z</time>
      </trkpt>
      <trkpt lat="45.51545" lon="6.04505">
        <ele>1127.0012</ele>
        <time>2016-11-16T11:32:21Z</time>
      </trkpt>
      <trkpt lat="45.51545" lon="6.04505">
        <ele>1127.0012</ele>
        <time>2016-11-16T11:32:21Z</time>
      </trkpt>
      <trkpt lat="45.51548" lon="6.0453">
        <ele>1125.8834</ele>
        <time>2016-11-16T11:34:56Z</time>
      </trkpt>
      <trkpt lat="45.51562" lon="6.04535">
        <ele>1125.9918</ele>
        <time>2016-11-16T11:37:18Z</time>
      </trkpt>
      <trkpt lat="45.51572" lon="6.04536">
        <ele>1122.3877</ele>
        <time>2016-11-16T11:38:01Z</time>
      </trkpt>
      <trkpt lat="45.51576" lon="6.04541">
        <ele>1121.0905</ele>
        <time>2016-11-16T11:38:24Z</time>
      </trkpt>
      <trkpt lat="45.5158" lon="6.04555">
        <ele>1120.3215</ele>
        <time>2016-11-16T11:38:29Z</time>
      </trkpt>
      <trkpt lat="45.5158" lon="6.04568">
        <ele>1120.5673</ele>
        <time>2016-11-16T11:38:38Z</time>
      </trkpt>
      <trkpt lat="45.5158" lon="6.04582">
        <ele>1118.2421</ele>
        <time>2016-11-16T11:39:20Z</time>
      </trkpt>
      <trkpt lat="45.51585" lon="6.04595">
        <ele>1118.53</ele>
        <time>2016-11-16T11:39:25Z</time>
      </trkpt>
      <trkpt lat="45.51584" lon="6.04609">
        <ele>1117.1666</ele>
        <time>2016-11-16T11:39:31Z</time>
      </trkpt>
      <trkpt lat="45.51582" lon="6.04622">
        <ele>1117.7797</ele>
        <time>2016-11-16T11:39:40Z</time>
      </trkpt>
      <trkpt lat="45.5158" lon="6.04635">
        <ele>1117.7003</ele>
        <time>2016-11-16T11:39:49Z</time>
      </trkpt>
      <trkpt lat="45.51582" lon="6.04649">
        <ele>1117.3225</ele>
        <time>2016-11-16T11:39:57Z</time>
      </trkpt>
      <trkpt lat="45.51585" lon="6.04663">
        <ele>1117.5101</ele>
        <time>2016-11-16T11:40:05Z</time>
      </trkpt>
      <trkpt lat="45.51587" lon="6.04676">
        <ele>1116.6091</ele>
        <time>2016-11-16T11:40:15Z</time>
      </trkpt>
      <trkpt lat="45.51588" lon="6.04689">
        <ele>1115.4756</ele>
        <time>2016-11-16T11:40:24Z</time>
      </trkpt>
      <trkpt lat="45.5159" lon="6.04702">
        <ele>1114.9656</ele>
        <time>2016-11-16T11:40:34Z</time>
      </trkpt>
      <trkpt lat="45.51594" lon="6.04715">
        <ele>1115.0184</ele>
        <time>2016-11-16T11:40:41Z</time>
      </trkpt>
      <trkpt lat="45.51595" lon="6.04728">
        <ele>1113.9087</ele>
        <time>2016-11-16T11:40:50Z</time>
      </trkpt>
      <trkpt lat="45.51601" lon="6.04739">
        <ele>1112.038</ele>
        <time>2016-11-16T11:41:02Z</time>
      </trkpt>
      <trkpt lat="45.51606" lon="6.04751">
        <ele>1109.652</ele>
        <time>2016-11-16T11:41:10Z</time>
      </trkpt>
      <trkpt lat="45.51608" lon="6.04765">
        <ele>1107.9054</ele>
        <time>2016-11-16T11:41:21Z</time>
      </trkpt>
      <trkpt lat="45.51613" lon="6.04778">
        <ele>1105.5432</ele>
        <time>2016-11-16T11:41:31Z</time>
      </trkpt>
      <trkpt lat="45.51621" lon="6.04785">
        <ele>1105.4772</ele>
        <time>2016-11-16T11:41:44Z</time>
      </trkpt>
      <trkpt lat="45.51623" lon="6.04785">
        <ele>1110.7485</ele>
        <time>2016-11-16T11:42:23Z</time>
      </trkpt>
      <trkpt lat="45.51632" lon="6.0479">
        <ele>1111.9983</ele>
        <time>2016-11-16T11:42:37Z</time>
      </trkpt>
      <trkpt lat="45.51643" lon="6.04798">
        <ele>1109.4961</ele>
        <time>2016-11-16T11:42:59Z</time>
      </trkpt>
      <trkpt lat="45.51648" lon="6.04809">
        <ele>1107.3083</ele>
        <time>2016-11-16T11:43:10Z</time>
      </trkpt>
      <trkpt lat="45.51656" lon="6.04819">
        <ele>1106.3545</ele>
        <time>2016-11-16T11:43:25Z</time>
      </trkpt>
      <trkpt lat="45.51664" lon="6.04814">
        <ele>1106.1748</ele>
        <time>2016-11-16T11:43:32Z</time>
      </trkpt>
      <trkpt lat="45.51672" lon="6.04807">
        <ele>1106.3491</ele>
        <time>2016-11-16T11:43:43Z</time>
      </trkpt>
      <trkpt lat="45.51681" lon="6.04802">
        <ele>1108.7457</ele>
        <time>2016-11-16T11:43:55Z</time>
      </trkpt>
      <trkpt lat="45.51689" lon="6.04807">
        <ele>1108.5184</ele>
        <time>2016-11-16T11:44:08Z</time>
      </trkpt>
      <trkpt lat="45.51701" lon="6.04813">
        <ele>1114.2416</ele>
        <time>2016-11-16T11:44:50Z</time>
      </trkpt>
      <trkpt lat="45.51714" lon="6.04838">
        <ele>1118.7599</ele>
        <time>2016-11-16T11:45:16Z</time>
      </trkpt>
      <trkpt lat="45.5172" lon="6.04848">
        <ele>1122.0627</ele>
        <time>2016-11-16T11:45:46Z</time>
      </trkpt>
      <trkpt lat="45.51729" lon="6.04858">
        <ele>1124.6046</ele>
        <time>2016-11-16T11:46:03Z</time>
      </trkpt>
      <trkpt lat="45.51736" lon="6.04878">
        <ele>1124.6918</ele>
        <time>2016-11-16T11:46:46Z</time>
      </trkpt>
      <trkpt lat="45.51739" lon="6.0489">
        <ele>1121.3176</ele>
        <time>2016-11-16T11:47:08Z</time>
      </trkpt>
      <trkpt lat="45.51745" lon="6.04901">
        <ele>1123.619</ele>
        <time>2016-11-16T11:47:24Z</time>
      </trkpt>
      <trkpt lat="45.51745" lon="6.04915">
        <ele>1122.9215</ele>
        <time>2016-11-16T11:47:33Z</time>
      </trkpt>
      <trkpt lat="45.51741" lon="6.04921">
        <ele>1125.0564</ele>
        <time>2016-11-16T11:47:58Z</time>
      </trkpt>
      <trkpt lat="45.51735" lon="6.0491">
        <ele>1127.9735</ele>
        <time>2016-11-16T11:48:19Z</time>
      </trkpt>
      <trkpt lat="45.51731" lon="6.04899">
        <ele>1130.4836</ele>
        <time>2016-11-16T11:48:34Z</time>
      </trkpt>
      <trkpt lat="45.51724" lon="6.0489">
        <ele>1132.6953</ele>
        <time>2016-11-16T11:48:54Z</time>
      </trkpt>
      <trkpt lat="45.51708" lon="6.04887">
        <ele>1139.7554</ele>
        <time>2016-11-16T11:49:56Z</time>
      </trkpt>
      <trkpt lat="45.51708" lon="6.04887">
        <ele>1139.7554</ele>
        <time>2016-11-16T11:49:56Z</time>
      </trkpt>
      <trkpt lat="45.51708" lon="6.04887">
        <ele>1139.7554</ele>
        <time>2016-11-16T11:49:56Z</time>
      </trkpt>
      <trkpt lat="45.51705" lon="6.04882">
        <ele>1140.2311</ele>
        <time>2016-11-16T11:53:45Z</time>
      </trkpt>
      <trkpt lat="45.51708" lon="6.04886">
        <ele>1140.1042</ele>
        <time>2016-11-16T11:56:59Z</time>
      </trkpt>
      <trkpt lat="45.51708" lon="6.04891">
        <ele>1139.8347</ele>
        <time>2016-11-16T11:58:47Z</time>
      </trkpt>
      <trkpt lat="45.51708" lon="6.04883">
        <ele>1139.6444</ele>
        <time>2016-11-16T11:59:07Z</time>
      </trkpt>
      <trkpt lat="45.51708" lon="6.04883">
        <ele>1139.6444</ele>
        <time>2016-11-16T11:59:07Z</time>
      </trkpt>
      <trkpt lat="45.51708" lon="6.04883">
        <ele>1145.4469</ele>
        <time>2016-11-16T12:55:43Z</time>
      </trkpt>
      <trkpt lat="45.51707" lon="6.04883">
        <ele>1144.0068</ele>
        <time>2016-11-16T12:56:04Z</time>
      </trkpt>
      <trkpt lat="45.51713" lon="6.04882">
        <ele>1140.7278</ele>
        <time>2016-11-16T12:56:58Z</time>
      </trkpt>
      <trkpt lat="45.51724" lon="6.0489">
        <ele>1136.2676</ele>
        <time>2016-11-16T12:57:26Z</time>
      </trkpt>
      <trkpt lat="45.51727" lon="6.0489">
        <ele>1135.3983</ele>
        <time>2016-11-16T12:57:34Z</time>
      </trkpt>
      <trkpt lat="45.51727" lon="6.0489">
        <ele>1135.3983</ele>
        <time>2016-11-16T12:57:34Z</time>
      </trkpt>
      <trkpt lat="45.51729" lon="6.04902">
        <ele>1134.0349</ele>
        <time>2016-11-16T12:57:54Z</time>
      </trkpt>
      <trkpt lat="45.51737" lon="6.0491">
        <ele>1129.2736</ele>
        <time>2016-11-16T12:58:14Z</time>
      </trkpt>
      <trkpt lat="45.51751" lon="6.04931">
        <ele>1123.154</ele>
        <time>2016-11-16T12:59:08Z</time>
      </trkpt>
      <trkpt lat="45.51757" lon="6.04941">
        <ele>1120.4484</ele>
        <time>2016-11-16T12:59:15Z</time>
      </trkpt>
      <trkpt lat="45.51761" lon="6.04953">
        <ele>1120.266</ele>
        <time>2016-11-16T12:59:21Z</time>
      </trkpt>
      <trkpt lat="45.51762" lon="6.04966">
        <ele>1119.077</ele>
        <time>2016-11-16T12:59:30Z</time>
      </trkpt>
      <trkpt lat="45.51773" lon="6.04975">
        <ele>1111.9587</ele>
        <time>2016-11-16T13:00:03Z</time>
      </trkpt>
      <trkpt lat="45.51777" lon="6.04989">
        <ele>1110.6111</ele>
        <time>2016-11-16T13:00:08Z</time>
      </trkpt>
      <trkpt lat="45.51783" lon="6.04998">
        <ele>1109.105</ele>
        <time>2016-11-16T13:00:15Z</time>
      </trkpt>
      <trkpt lat="45.51788" lon="6.0501">
        <ele>1104.4017</ele>
        <time>2016-11-16T13:00:38Z</time>
      </trkpt>
      <trkpt lat="45.51794" lon="6.0502">
        <ele>1103.7042</ele>
        <time>2016-11-16T13:00:45Z</time>
      </trkpt>
      <trkpt lat="45.51802" lon="6.05025">
        <ele>1100.8849</ele>
        <time>2016-11-16T13:00:56Z</time>
      </trkpt>
      <trkpt lat="45.51803" lon="6.05038">
        <ele>1099.6748</ele>
        <time>2016-11-16T13:01:04Z</time>
      </trkpt>
      <trkpt lat="45.51805" lon="6.05053">
        <ele>1097.3126</ele>
        <time>2016-11-16T13:01:30Z</time>
      </trkpt>
      <trkpt lat="45.51805" lon="6.05067">
        <ele>1096.6388</ele>
        <time>2016-11-16T13:01:34Z</time>
      </trkpt>
      <trkpt lat="45.51804" lon="6.05081">
        <ele>1095.5079</ele>
        <time>2016-11-16T13:01:40Z</time>
      </trkpt>
      <trkpt lat="45.51805" lon="6.05094">
        <ele>1096.0258</ele>
        <time>2016-11-16T13:01:51Z</time>
      </trkpt>
      <trkpt lat="45.51806" lon="6.05103">
        <ele>1093.4364</ele>
        <time>2016-11-16T13:02:15Z</time>
      </trkpt>
      <trkpt lat="45.51806" lon="6.05103">
        <ele>1093.4364</ele>
        <time>2016-11-16T13:02:15Z</time>
      </trkpt>
      <trkpt lat="45.51814" lon="6.05119">
        <ele>1089.6526</ele>
        <time>2016-11-16T13:02:37Z</time>
      </trkpt>
      <trkpt lat="45.51817" lon="6.05131">
        <ele>1091.1323</ele>
        <time>2016-11-16T13:02:43Z</time>
      </trkpt>
      <trkpt lat="45.51822" lon="6.05154">
        <ele>1085.3933</ele>
        <time>2016-11-16T13:03:05Z</time>
      </trkpt>
      <trkpt lat="45.51829" lon="6.05169">
        <ele>1082.0508</ele>
        <time>2016-11-16T13:03:21Z</time>
      </trkpt>
      <trkpt lat="45.51836" lon="6.05177">
        <ele>1080.5499</ele>
        <time>2016-11-16T13:03:29Z</time>
      </trkpt>
      <trkpt lat="45.51846" lon="6.05177">
        <ele>1080.8934</ele>
        <time>2016-11-16T13:03:39Z</time>
      </trkpt>
      <trkpt lat="45.51852" lon="6.05186">
        <ele>1077.7174</ele>
        <time>2016-11-16T13:03:49Z</time>
      </trkpt>
      <trkpt lat="45.51858" lon="6.05196">
        <ele>1074.198</ele>
        <time>2016-11-16T13:04:01Z</time>
      </trkpt>
      <trkpt lat="45.5186" lon="6.05209">
        <ele>1072.0419</ele>
        <time>2016-11-16T13:04:11Z</time>
      </trkpt>
      <trkpt lat="45.51861" lon="6.05222">
        <ele>1070.3456</ele>
        <time>2016-11-16T13:04:20Z</time>
      </trkpt>
      <trkpt lat="45.51866" lon="6.05232">
        <ele>1070.1659</ele>
        <time>2016-11-16T13:04:30Z</time>
      </trkpt>
      <trkpt lat="45.51865" lon="6.05245">
        <ele>1066.8022</ele>
        <time>2016-11-16T13:04:40Z</time>
      </trkpt>
      <trkpt lat="45.51862" lon="6.05257">
        <ele>1063.8323</ele>
        <time>2016-11-16T13:05:01Z</time>
      </trkpt>
      <trkpt lat="45.51861" lon="6.05271">
        <ele>1059.6654</ele>
        <time>2016-11-16T13:05:19Z</time>
      </trkpt>
      <trkpt lat="45.51856" lon="6.05281">
        <ele>1058.8014</ele>
        <time>2016-11-16T13:05:29Z</time>
      </trkpt>
      <trkpt lat="45.51851" lon="6.05293">
        <ele>1056.6956</ele>
        <time>2016-11-16T13:05:39Z</time>
      </trkpt>
      <trkpt lat="45.51858" lon="6.05301">
        <ele>1054.7509</ele>
        <time>2016-11-16T13:05:49Z</time>
      </trkpt>
      <trkpt lat="45.51857" lon="6.05315">
        <ele>1051.3634</ele>
        <time>2016-11-16T13:06:02Z</time>
      </trkpt>
      <trkpt lat="45.51856" lon="6.05329">
        <ele>1051.2261</ele>
        <time>2016-11-16T13:06:12Z</time>
      </trkpt>
      <trkpt lat="45.51849" lon="6.05338">
        <ele>1046.3405</ele>
        <time>2016-11-16T13:06:25Z</time>
      </trkpt>
      <trkpt lat="45.51851" lon="6.05352">
        <ele>1044.6072</ele>
        <time>2016-11-16T13:06:37Z</time>
      </trkpt>
      <trkpt lat="45.5185" lon="6.05366">
        <ele>1041.7139</ele>
        <time>2016-11-16T13:06:47Z</time>
      </trkpt>
      <trkpt lat="45.51852" lon="6.05379">
        <ele>1040.5962</ele>
        <time>2016-11-16T13:07:00Z</time>
      </trkpt>
      <trkpt lat="45.5185" lon="6.05393">
        <ele>1038.7307</ele>
        <time>2016-11-16T13:07:08Z</time>
      </trkpt>
      <trkpt lat="45.51855" lon="6.05404">
        <ele>1039.6846</ele>
        <time>2016-11-16T13:07:16Z</time>
      </trkpt>
      <trkpt lat="45.51857" lon="6.05419">
        <ele>1039.3649</ele>
        <time>2016-11-16T13:07:25Z</time>
      </trkpt>
      <trkpt lat="45.51859" lon="6.05432">
        <ele>1039.3833</ele>
        <time>2016-11-16T13:07:34Z</time>
      </trkpt>
      <trkpt lat="45.5186" lon="6.05446">
        <ele>1036.9392</ele>
        <time>2016-11-16T13:07:46Z</time>
      </trkpt>
      <trkpt lat="45.51863" lon="6.0546">
        <ele>1034.5665</ele>
        <time>2016-11-16T13:07:54Z</time>
      </trkpt>
      <trkpt lat="45.51866" lon="6.05472">
        <ele>1033.359</ele>
        <time>2016-11-16T13:08:09Z</time>
      </trkpt>
      <trkpt lat="45.51875" lon="6.05478">
        <ele>1030.2649</ele>
        <time>2016-11-16T13:08:19Z</time>
      </trkpt>
      <trkpt lat="45.51883" lon="6.05486">
        <ele>1028.5104</ele>
        <time>2016-11-16T13:08:27Z</time>
      </trkpt>
      <trkpt lat="45.51892" lon="6.05489">
        <ele>1027.3743</ele>
        <time>2016-11-16T13:08:35Z</time>
      </trkpt>
      <trkpt lat="45.51902" lon="6.05493">
        <ele>1026.3649</ele>
        <time>2016-11-16T13:08:43Z</time>
      </trkpt>
      <trkpt lat="45.51904" lon="6.05498">
        <ele>1020.9588</ele>
        <time>2016-11-16T13:09:10Z</time>
      </trkpt>
      <trkpt lat="45.51913" lon="6.05496">
        <ele>1019.58746</ele>
        <time>2016-11-16T13:09:18Z</time>
      </trkpt>
      <trkpt lat="45.51915" lon="6.05509">
        <ele>1015.31226</ele>
        <time>2016-11-16T13:09:39Z</time>
      </trkpt>
      <trkpt lat="45.5191" lon="6.0552">
        <ele>1013.098</ele>
        <time>2016-11-16T13:09:49Z</time>
      </trkpt>
      <trkpt lat="45.51904" lon="6.0553">
        <ele>1010.7596</ele>
        <time>2016-11-16T13:10:02Z</time>
      </trkpt>
      <trkpt lat="45.51898" lon="6.05541">
        <ele>1008.54803</ele>
        <time>2016-11-16T13:10:13Z</time>
      </trkpt>
      <trkpt lat="45.5189" lon="6.05549">
        <ele>1006.3602</ele>
        <time>2016-11-16T13:10:23Z</time>
      </trkpt>
      <trkpt lat="45.51891" lon="6.05564">
        <ele>1002.30963</ele>
        <time>2016-11-16T13:10:41Z</time>
      </trkpt>
      <trkpt lat="45.51899" lon="6.05573">
        <ele>1001.6226</ele>
        <time>2016-11-16T13:10:48Z</time>
      </trkpt>
      <trkpt lat="45.51905" lon="6.05583">
        <ele>999.9501</ele>
        <time>2016-11-16T13:10:59Z</time>
      </trkpt>
      <trkpt lat="45.51909" lon="6.05595">
        <ele>999.2499</ele>
        <time>2016-11-16T13:11:06Z</time>
      </trkpt>
      <trkpt lat="45.51915" lon="6.05607">
        <ele>998.4915</ele>
        <time>2016-11-16T13:11:14Z</time>
      </trkpt>
      <trkpt lat="45.51922" lon="6.05617">
        <ele>996.9881</ele>
        <time>2016-11-16T13:11:24Z</time>
      </trkpt>
      <trkpt lat="45.5193" lon="6.05621">
        <ele>996.3037</ele>
        <time>2016-11-16T13:11:33Z</time>
      </trkpt>
      <trkpt lat="45.51925" lon="6.05632">
        <ele>995.6379</ele>
        <time>2016-11-16T13:11:43Z</time>
      </trkpt>
      <trkpt lat="45.51919" lon="6.05644">
        <ele>989.9332</ele>
        <time>2016-11-16T13:11:57Z</time>
      </trkpt>
      <trkpt lat="45.51922" lon="6.05656">
        <ele>987.4548</ele>
        <time>2016-11-16T13:12:06Z</time>
      </trkpt>
      <trkpt lat="45.51919" lon="6.05669">
        <ele>987.8194</ele>
        <time>2016-11-16T13:12:15Z</time>
      </trkpt>
      <trkpt lat="45.51925" lon="6.05681">
        <ele>985.15594</ele>
        <time>2016-11-16T13:12:24Z</time>
      </trkpt>
      <trkpt lat="45.5193" lon="6.05692">
        <ele>984.79663</ele>
        <time>2016-11-16T13:12:35Z</time>
      </trkpt>
      <trkpt lat="45.51936" lon="6.05701">
        <ele>984.92084</ele>
        <time>2016-11-16T13:12:44Z</time>
      </trkpt>
      <trkpt lat="45.51941" lon="6.05713">
        <ele>985.11633</ele>
        <time>2016-11-16T13:12:53Z</time>
      </trkpt>
      <trkpt lat="45.51944" lon="6.05725">
        <ele>986.3978</ele>
        <time>2016-11-16T13:13:01Z</time>
      </trkpt>
      <trkpt lat="45.51951" lon="6.05736">
        <ele>987.2751</ele>
        <time>2016-11-16T13:13:09Z</time>
      </trkpt>
      <trkpt lat="45.5196" lon="6.05747">
        <ele>988.5566</ele>
        <time>2016-11-16T13:13:19Z</time>
      </trkpt>
      <trkpt lat="45.51957" lon="6.0576">
        <ele>990.73114</ele>
        <time>2016-11-16T13:13:27Z</time>
      </trkpt>
      <trkpt lat="45.51958" lon="6.05775">
        <ele>992.1686</ele>
        <time>2016-11-16T13:13:35Z</time>
      </trkpt>
      <trkpt lat="45.51955" lon="6.05788">
        <ele>991.54236</ele>
        <time>2016-11-16T13:13:49Z</time>
      </trkpt>
      <trkpt lat="45.5195" lon="6.058">
        <ele>991.16187</ele>
        <time>2016-11-16T13:13:55Z</time>
      </trkpt>
      <trkpt lat="45.51942" lon="6.05808">
        <ele>991.3917</ele>
        <time>2016-11-16T13:14:02Z</time>
      </trkpt>
      <trkpt lat="45.51943" lon="6.05822">
        <ele>991.88586</ele>
        <time>2016-11-16T13:14:14Z</time>
      </trkpt>
      <trkpt lat="45.51944" lon="6.05835">
        <ele>989.5448</ele>
        <time>2016-11-16T13:14:46Z</time>
      </trkpt>
      <trkpt lat="45.51952" lon="6.05843">
        <ele>989.2039</ele>
        <time>2016-11-16T13:14:50Z</time>
      </trkpt>
      <trkpt lat="45.5196" lon="6.0585">
        <ele>990.87646</ele>
        <time>2016-11-16T13:14:59Z</time>
      </trkpt>
      <trkpt lat="45.51969" lon="6.05857">
        <ele>988.0625</ele>
        <time>2016-11-16T13:15:10Z</time>
      </trkpt>
      <trkpt lat="45.51978" lon="6.05866">
        <ele>987.71106</ele>
        <time>2016-11-16T13:15:20Z</time>
      </trkpt>
      <trkpt lat="45.51986" lon="6.05874">
        <ele>986.3582</ele>
        <time>2016-11-16T13:15:28Z</time>
      </trkpt>
      <trkpt lat="45.51994" lon="6.05882">
        <ele>983.01575</ele>
        <time>2016-11-16T13:15:40Z</time>
      </trkpt>
      <trkpt lat="45.52004" lon="6.05886">
        <ele>980.8966</ele>
        <time>2016-11-16T13:15:53Z</time>
      </trkpt>
      <trkpt lat="45.52011" lon="6.05895">
        <ele>977.86597</ele>
        <time>2016-11-16T13:16:05Z</time>
      </trkpt>
      <trkpt lat="45.52022" lon="6.05898">
        <ele>976.957</ele>
        <time>2016-11-16T13:16:17Z</time>
      </trkpt>
      <trkpt lat="45.52031" lon="6.05903">
        <ele>974.0822</ele>
        <time>2016-11-16T13:16:29Z</time>
      </trkpt>
      <trkpt lat="45.52041" lon="6.05908">
        <ele>969.3578</ele>
        <time>2016-11-16T13:16:39Z</time>
      </trkpt>
      <trkpt lat="45.52044" lon="6.05922">
        <ele>965.1698</ele>
        <time>2016-11-16T13:16:54Z</time>
      </trkpt>
      <trkpt lat="45.52039" lon="6.05933">
        <ele>964.0706</ele>
        <time>2016-11-16T13:17:05Z</time>
      </trkpt>
      <trkpt lat="45.52031" lon="6.0594">
        <ele>962.8842</ele>
        <time>2016-11-16T13:17:12Z</time>
      </trkpt>
      <trkpt lat="45.52027" lon="6.05958">
        <ele>955.79236</ele>
        <time>2016-11-16T13:17:47Z</time>
      </trkpt>
      <trkpt lat="45.52027" lon="6.05975">
        <ele>955.6444</ele>
        <time>2016-11-16T13:17:56Z</time>
      </trkpt>
      <trkpt lat="45.52021" lon="6.05987">
        <ele>953.36676</ele>
        <time>2016-11-16T13:18:00Z</time>
      </trkpt>
      <trkpt lat="45.5202" lon="6.06">
        <ele>952.12756</ele>
        <time>2016-11-16T13:18:06Z</time>
      </trkpt>
      <trkpt lat="45.52016" lon="6.06012">
        <ele>952.4182</ele>
        <time>2016-11-16T13:18:17Z</time>
      </trkpt>
      <trkpt lat="45.52019" lon="6.06026">
        <ele>950.2859</ele>
        <time>2016-11-16T13:18:28Z</time>
      </trkpt>
      <trkpt lat="45.52018" lon="6.0604">
        <ele>949.93445</ele>
        <time>2016-11-16T13:18:35Z</time>
      </trkpt>
      <trkpt lat="45.52024" lon="6.06049">
        <ele>948.4786</ele>
        <time>2016-11-16T13:18:44Z</time>
      </trkpt>
      <trkpt lat="45.52028" lon="6.06061">
        <ele>947.58813</ele>
        <time>2016-11-16T13:18:50Z</time>
      </trkpt>
      <trkpt lat="45.52036" lon="6.06068">
        <ele>949.70197</ele>
        <time>2016-11-16T13:18:58Z</time>
      </trkpt>
      <trkpt lat="45.52041" lon="6.06082">
        <ele>946.9566</ele>
        <time>2016-11-16T13:19:14Z</time>
      </trkpt>
      <trkpt lat="45.52049" lon="6.06088">
        <ele>947.8999</ele>
        <time>2016-11-16T13:19:22Z</time>
      </trkpt>
      <trkpt lat="45.52057" lon="6.06097">
        <ele>950.35724</ele>
        <time>2016-11-16T13:19:34Z</time>
      </trkpt>
      <trkpt lat="45.52066" lon="6.06102">
        <ele>951.1103</ele>
        <time>2016-11-16T13:19:51Z</time>
      </trkpt>
      <trkpt lat="45.52076" lon="6.06103">
        <ele>949.60156</ele>
        <time>2016-11-16T13:20:21Z</time>
      </trkpt>
      <trkpt lat="45.52099" lon="6.06101">
        <ele>949.8473</ele>
        <time>2016-11-16T13:20:40Z</time>
      </trkpt>
      <trkpt lat="45.52107" lon="6.06095">
        <ele>949.73895</ele>
        <time>2016-11-16T13:20:47Z</time>
      </trkpt>
      <trkpt lat="45.5212" lon="6.06086">
        <ele>949.2818</ele>
        <time>2016-11-16T13:21:10Z</time>
      </trkpt>
      <trkpt lat="45.52129" lon="6.0608">
        <ele>949.5275</ele>
        <time>2016-11-16T13:21:14Z</time>
      </trkpt>
      <trkpt lat="45.52136" lon="6.06071">
        <ele>950.8936</ele>
        <time>2016-11-16T13:21:19Z</time>
      </trkpt>
      <trkpt lat="45.52145" lon="6.06067">
        <ele>950.2991</ele>
        <time>2016-11-16T13:21:24Z</time>
      </trkpt>
      <trkpt lat="45.52154" lon="6.06061">
        <ele>948.82733</ele>
        <time>2016-11-16T13:21:30Z</time>
      </trkpt>
      <trkpt lat="45.52162" lon="6.06054">
        <ele>947.2605</ele>
        <time>2016-11-16T13:21:38Z</time>
      </trkpt>
      <trkpt lat="45.52171" lon="6.06058">
        <ele>945.1334</ele>
        <time>2016-11-16T13:22:52Z</time>
      </trkpt>
      <trkpt lat="45.52177" lon="6.06048">
        <ele>941.4158</ele>
        <time>2016-11-16T13:23:05Z</time>
      </trkpt>
      <trkpt lat="45.52179" lon="6.06034">
        <ele>939.52655</ele>
        <time>2016-11-16T13:23:13Z</time>
      </trkpt>
      <trkpt lat="45.52176" lon="6.06022">
        <ele>937.5845</ele>
        <time>2016-11-16T13:23:20Z</time>
      </trkpt>
      <trkpt lat="45.5217" lon="6.06011">
        <ele>937.2278</ele>
        <time>2016-11-16T13:23:34Z</time>
      </trkpt>
      <trkpt lat="45.52166" lon="6.05998">
        <ele>936.57513</ele>
        <time>2016-11-16T13:23:38Z</time>
      </trkpt>
      <trkpt lat="45.52176" lon="6.05996">
        <ele>931.7345</ele>
        <time>2016-11-16T13:23:55Z</time>
      </trkpt>
      <trkpt lat="45.52185" lon="6.05993">
        <ele>925.70215</ele>
        <time>2016-11-16T13:24:14Z</time>
      </trkpt>
      <trkpt lat="45.52195" lon="6.05994">
        <ele>923.7548</ele>
        <time>2016-11-16T13:24:21Z</time>
      </trkpt>
      <trkpt lat="45.52204" lon="6.05992">
        <ele>922.4099</ele>
        <time>2016-11-16T13:24:26Z</time>
      </trkpt>
      <trkpt lat="45.52214" lon="6.05995">
        <ele>920.8721</ele>
        <time>2016-11-16T13:24:32Z</time>
      </trkpt>
      <trkpt lat="45.52224" lon="6.05999">
        <ele>920.10583</ele>
        <time>2016-11-16T13:24:38Z</time>
      </trkpt>
      <trkpt lat="45.52235" lon="6.05997">
        <ele>917.7463</ele>
        <time>2016-11-16T13:24:47Z</time>
      </trkpt>
      <trkpt lat="45.52245" lon="6.06004">
        <ele>908.9264</ele>
        <time>2016-11-16T13:25:16Z</time>
      </trkpt>
      <trkpt lat="45.52256" lon="6.06006">
        <ele>907.5418</ele>
        <time>2016-11-16T13:25:23Z</time>
      </trkpt>
      <trkpt lat="45.52265" lon="6.06007">
        <ele>905.8772</ele>
        <time>2016-11-16T13:25:29Z</time>
      </trkpt>
      <trkpt lat="45.52274" lon="6.06011">
        <ele>904.9471</ele>
        <time>2016-11-16T13:25:34Z</time>
      </trkpt>
      <trkpt lat="45.52281" lon="6.06018">
        <ele>904.5693</ele>
        <time>2016-11-16T13:25:40Z</time>
      </trkpt>
      <trkpt lat="45.52291" lon="6.06022">
        <ele>904.6512</ele>
        <time>2016-11-16T13:25:47Z</time>
      </trkpt>
      <trkpt lat="45.52303" lon="6.06023">
        <ele>900.3601</ele>
        <time>2016-11-16T13:26:09Z</time>
      </trkpt>
      <trkpt lat="45.52313" lon="6.0602">
        <ele>900.64813</ele>
        <time>2016-11-16T13:26:14Z</time>
      </trkpt>
      <trkpt lat="45.52321" lon="6.06027">
        <ele>899.54895</ele>
        <time>2016-11-16T13:26:19Z</time>
      </trkpt>
      <trkpt lat="45.52331" lon="6.06028">
        <ele>898.7959</ele>
        <time>2016-11-16T13:26:24Z</time>
      </trkpt>
      <trkpt lat="45.52341" lon="6.06026">
        <ele>899.36395</ele>
        <time>2016-11-16T13:26:28Z</time>
      </trkpt>
      <trkpt lat="45.5235" lon="6.0603">
        <ele>897.8262</ele>
        <time>2016-11-16T13:26:31Z</time>
      </trkpt>
      <trkpt lat="45.5236" lon="6.06031">
        <ele>898.32294</ele>
        <time>2016-11-16T13:26:35Z</time>
      </trkpt>
      <trkpt lat="45.52368" lon="6.06023">
        <ele>896.6398</ele>
        <time>2016-11-16T13:26:41Z</time>
      </trkpt>
      <trkpt lat="45.52377" lon="6.0603">
        <ele>895.3768</ele>
        <time>2016-11-16T13:26:51Z</time>
      </trkpt>
      <trkpt lat="45.52386" lon="6.06033">
        <ele>894.7241</ele>
        <time>2016-11-16T13:26:58Z</time>
      </trkpt>
      <trkpt lat="45.52396" lon="6.06037">
        <ele>894.0239</ele>
        <time>2016-11-16T13:27:06Z</time>
      </trkpt>
      <trkpt lat="45.52403" lon="6.06047">
        <ele>893.58795</ele>
        <time>2016-11-16T13:27:15Z</time>
      </trkpt>
      <trkpt lat="45.52412" lon="6.06056">
        <ele>891.6274</ele>
        <time>2016-11-16T13:27:26Z</time>
      </trkpt>
      <trkpt lat="45.52419" lon="6.06064">
        <ele>890.2059</ele>
        <time>2016-11-16T13:27:33Z</time>
      </trkpt>
      <trkpt lat="45.52427" lon="6.06072">
        <ele>889.2837</ele>
        <time>2016-11-16T13:27:41Z</time>
      </trkpt>
      <trkpt lat="45.52436" lon="6.06076">
        <ele>888.063</ele>
        <time>2016-11-16T13:27:49Z</time>
      </trkpt>
      <trkpt lat="45.52443" lon="6.06084">
        <ele>885.99146</ele>
        <time>2016-11-16T13:27:58Z</time>
      </trkpt>
      <trkpt lat="45.52454" lon="6.06086">
        <ele>883.80365</ele>
        <time>2016-11-16T13:28:09Z</time>
      </trkpt>
      <trkpt lat="45.52464" lon="6.06093">
        <ele>882.7467</ele>
        <time>2016-11-16T13:28:18Z</time>
      </trkpt>
      <trkpt lat="45.52472" lon="6.061">
        <ele>881.2591</ele>
        <time>2016-11-16T13:28:25Z</time>
      </trkpt>
      <trkpt lat="45.52481" lon="6.06103">
        <ele>879.7768</ele>
        <time>2016-11-16T13:28:34Z</time>
      </trkpt>
      <trkpt lat="45.52493" lon="6.0611">
        <ele>878.89166</ele>
        <time>2016-11-16T13:29:33Z</time>
      </trkpt>
      <trkpt lat="45.52498" lon="6.06122">
        <ele>876.66156</ele>
        <time>2016-11-16T13:29:44Z</time>
      </trkpt>
      <trkpt lat="45.52505" lon="6.0613">
        <ele>876.48456</ele>
        <time>2016-11-16T13:29:53Z</time>
      </trkpt>
      <trkpt lat="45.52514" lon="6.06136">
        <ele>875.55975</ele>
        <time>2016-11-16T13:30:00Z</time>
      </trkpt>
      <trkpt lat="45.52521" lon="6.06145">
        <ele>874.3945</ele>
        <time>2016-11-16T13:30:13Z</time>
      </trkpt>
      <trkpt lat="45.52529" lon="6.06153">
        <ele>874.0457</ele>
        <time>2016-11-16T13:30:21Z</time>
      </trkpt>
      <trkpt lat="45.52538" lon="6.0616">
        <ele>875.0234</ele>
        <time>2016-11-16T13:30:28Z</time>
      </trkpt>
      <trkpt lat="45.52546" lon="6.06166">
        <ele>874.6006</ele>
        <time>2016-11-16T13:30:34Z</time>
      </trkpt>
      <trkpt lat="45.52552" lon="6.06175">
        <ele>875.1317</ele>
        <time>2016-11-16T13:30:41Z</time>
      </trkpt>
      <trkpt lat="45.52561" lon="6.0618">
        <ele>874.627</ele>
        <time>2016-11-16T13:30:52Z</time>
      </trkpt>
      <trkpt lat="45.52571" lon="6.06183">
        <ele>874.33105</ele>
        <time>2016-11-16T13:31:03Z</time>
      </trkpt>
      <trkpt lat="45.52581" lon="6.06186">
        <ele>873.4882</ele>
        <time>2016-11-16T13:31:09Z</time>
      </trkpt>
      <trkpt lat="45.52587" lon="6.06197">
        <ele>872.34674</ele>
        <time>2016-11-16T13:31:20Z</time>
      </trkpt>
      <trkpt lat="45.52596" lon="6.06205">
        <ele>871.6016</ele>
        <time>2016-11-16T13:31:26Z</time>
      </trkpt>
      <trkpt lat="45.52605" lon="6.06214">
        <ele>870.5447</ele>
        <time>2016-11-16T13:31:33Z</time>
      </trkpt>
      <trkpt lat="45.52614" lon="6.06217">
        <ele>869.89996</ele>
        <time>2016-11-16T13:31:40Z</time>
      </trkpt>
      <trkpt lat="45.5262" lon="6.06228">
        <ele>867.8866</ele>
        <time>2016-11-16T13:31:53Z</time>
      </trkpt>
      <trkpt lat="45.52631" lon="6.0623">
        <ele>866.6632</ele>
        <time>2016-11-16T13:32:06Z</time>
      </trkpt>
      <trkpt lat="45.5264" lon="6.06229">
        <ele>866.7795</ele>
        <time>2016-11-16T13:32:14Z</time>
      </trkpt>
      <trkpt lat="45.5265" lon="6.06225">
        <ele>864.0896</ele>
        <time>2016-11-16T13:32:24Z</time>
      </trkpt>
      <trkpt lat="45.52661" lon="6.0622">
        <ele>859.7246</ele>
        <time>2016-11-16T13:32:38Z</time>
      </trkpt>
      <trkpt lat="45.52671" lon="6.0622">
        <ele>857.011</ele>
        <time>2016-11-16T13:32:46Z</time>
      </trkpt>
      <trkpt lat="45.52681" lon="6.06219">
        <ele>855.5419</ele>
        <time>2016-11-16T13:32:57Z</time>
      </trkpt>
      <trkpt lat="45.52691" lon="6.06223">
        <ele>851.4754</ele>
        <time>2016-11-16T13:33:06Z</time>
      </trkpt>
      <trkpt lat="45.52699" lon="6.06231">
        <ele>849.6258</ele>
        <time>2016-11-16T13:33:16Z</time>
      </trkpt>
      <trkpt lat="45.52719" lon="6.0624">
        <ele>844.0004</ele>
        <time>2016-11-16T13:33:45Z</time>
      </trkpt>
      <trkpt lat="45.52729" lon="6.06243">
        <ele>843.4535</ele>
        <time>2016-11-16T13:33:49Z</time>
      </trkpt>
      <trkpt lat="45.52738" lon="6.0625">
        <ele>841.8179</ele>
        <time>2016-11-16T13:33:55Z</time>
      </trkpt>
      <trkpt lat="45.52747" lon="6.06244">
        <ele>840.4598</ele>
        <time>2016-11-16T13:34:01Z</time>
      </trkpt>
      <trkpt lat="45.52757" lon="6.06242">
        <ele>838.14514</ele>
        <time>2016-11-16T13:34:09Z</time>
      </trkpt>
      <trkpt lat="45.52766" lon="6.06244">
        <ele>835.3628</ele>
        <time>2016-11-16T13:34:18Z</time>
      </trkpt>
      <trkpt lat="45.52768" lon="6.0624">
        <ele>831.62665</ele>
        <time>2016-11-16T13:34:54Z</time>
      </trkpt>
      <trkpt lat="45.52777" lon="6.06234">
        <ele>830.6517</ele>
        <time>2016-11-16T13:34:59Z</time>
      </trkpt>
      <trkpt lat="45.52788" lon="6.06225">
        <ele>827.97766</ele>
        <time>2016-11-16T13:35:06Z</time>
      </trkpt>
      <trkpt lat="45.52796" lon="6.06219">
        <ele>824.8149</ele>
        <time>2016-11-16T13:35:19Z</time>
      </trkpt>
      <trkpt lat="45.52804" lon="6.06212">
        <ele>825.3539</ele>
        <time>2016-11-16T13:35:26Z</time>
      </trkpt>
      <trkpt lat="45.52799" lon="6.06213">
        <ele>824.26263</ele>
        <time>2016-11-16T13:36:58Z</time>
      </trkpt>
      <trkpt lat="45.52808" lon="6.06208">
        <ele>824.3102</ele>
        <time>2016-11-16T13:37:05Z</time>
      </trkpt>
      <trkpt lat="45.52816" lon="6.06202">
        <ele>821.0232</ele>
        <time>2016-11-16T13:37:15Z</time>
      </trkpt>
      <trkpt lat="45.52832" lon="6.06199">
        <ele>820.5608</ele>
        <time>2016-11-16T13:46:18Z</time>
      </trkpt>
      <trkpt lat="45.52839" lon="6.06188">
        <ele>819.63074</ele>
        <time>2016-11-16T13:46:31Z</time>
      </trkpt>
      <trkpt lat="45.52842" lon="6.06175">
        <ele>819.82623</ele>
        <time>2016-11-16T13:46:39Z</time>
      </trkpt>
      <trkpt lat="45.5284" lon="6.06161">
        <ele>817.4139</ele>
        <time>2016-11-16T13:46:49Z</time>
      </trkpt>
      <trkpt lat="45.52838" lon="6.06148">
        <ele>817.9608</ele>
        <time>2016-11-16T13:46:57Z</time>
      </trkpt>
      <trkpt lat="45.52843" lon="6.06136">
        <ele>818.24615</ele>
        <time>2016-11-16T13:47:06Z</time>
      </trkpt>
      <trkpt lat="45.52849" lon="6.06126">
        <ele>820.27277</ele>
        <time>2016-11-16T13:47:15Z</time>
      </trkpt>
      <trkpt lat="45.52856" lon="6.06117">
        <ele>820.3917</ele>
        <time>2016-11-16T13:47:22Z</time>
      </trkpt>
      <trkpt lat="45.52862" lon="6.06107">
        <ele>818.94635</ele>
        <time>2016-11-16T13:47:32Z</time>
      </trkpt>
      <trkpt lat="45.52871" lon="6.061">
        <ele>817.36896</ele>
        <time>2016-11-16T13:47:51Z</time>
      </trkpt>
      <trkpt lat="45.52879" lon="6.06092">
        <ele>816.7322</ele>
        <time>2016-11-16T13:48:00Z</time>
      </trkpt>
      <trkpt lat="45.52887" lon="6.06084">
        <ele>817.7098</ele>
        <time>2016-11-16T13:48:04Z</time>
      </trkpt>
      <trkpt lat="45.52896" lon="6.06072">
        <ele>815.2102</ele>
        <time>2016-11-16T13:48:23Z</time>
      </trkpt>
      <trkpt lat="45.52903" lon="6.06063">
        <ele>813.85736</ele>
        <time>2016-11-16T13:48:26Z</time>
      </trkpt>
      <trkpt lat="45.52911" lon="6.06054">
        <ele>815.51404</ele>
        <time>2016-11-16T13:48:29Z</time>
      </trkpt>
      <trkpt lat="45.52919" lon="6.06043">
        <ele>813.43195</ele>
        <time>2016-11-16T13:48:34Z</time>
      </trkpt>
      <trkpt lat="45.52926" lon="6.06031">
        <ele>812.96954</ele>
        <time>2016-11-16T13:48:42Z</time>
      </trkpt>
      <trkpt lat="45.52932" lon="6.06018">
        <ele>811.7726</ele>
        <time>2016-11-16T13:48:49Z</time>
      </trkpt>
      <trkpt lat="45.5294" lon="6.06005">
        <ele>812.8348</ele>
        <time>2016-11-16T13:48:58Z</time>
      </trkpt>
      <trkpt lat="45.52947" lon="6.05995">
        <ele>811.94696</ele>
        <time>2016-11-16T13:49:03Z</time>
      </trkpt>
      <trkpt lat="45.52955" lon="6.05984">
        <ele>813.3685</ele>
        <time>2016-11-16T13:49:09Z</time>
      </trkpt>
      <trkpt lat="45.52962" lon="6.05975">
        <ele>810.8161</ele>
        <time>2016-11-16T13:49:17Z</time>
      </trkpt>
      <trkpt lat="45.52968" lon="6.05964">
        <ele>811.4793</ele>
        <time>2016-11-16T13:49:22Z</time>
      </trkpt>
      <trkpt lat="45.52975" lon="6.05954">
        <ele>810.3352</ele>
        <time>2016-11-16T13:49:28Z</time>
      </trkpt>
      <trkpt lat="45.5298" lon="6.05942">
        <ele>811.2759</ele>
        <time>2016-11-16T13:49:37Z</time>
      </trkpt>
      <trkpt lat="45.52986" lon="6.05931">
        <ele>810.08685</ele>
        <time>2016-11-16T13:49:41Z</time>
      </trkpt>
      <trkpt lat="45.52992" lon="6.05918">
        <ele>810.00494</ele>
        <time>2016-11-16T13:49:48Z</time>
      </trkpt>
      <trkpt lat="45.52997" lon="6.05907">
        <ele>809.7513</ele>
        <time>2016-11-16T13:49:54Z</time>
      </trkpt>
      <trkpt lat="45.53003" lon="6.05895">
        <ele>811.7409</ele>
        <time>2016-11-16T13:50:02Z</time>
      </trkpt>
      <trkpt lat="45.53007" lon="6.05883">
        <ele>810.2322</ele>
        <time>2016-11-16T13:50:10Z</time>
      </trkpt>
      <trkpt lat="45.53014" lon="6.05874">
        <ele>809.8147</ele>
        <time>2016-11-16T13:50:16Z</time>
      </trkpt>
      <trkpt lat="45.53018" lon="6.05862">
        <ele>809.63763</ele>
        <time>2016-11-16T13:50:22Z</time>
      </trkpt>
      <trkpt lat="45.53025" lon="6.05853">
        <ele>811.334</ele>
        <time>2016-11-16T13:50:27Z</time>
      </trkpt>
      <trkpt lat="45.53031" lon="6.05841">
        <ele>809.74066</ele>
        <time>2016-11-16T13:50:35Z</time>
      </trkpt>
      <trkpt lat="45.53036" lon="6.0583">
        <ele>809.5346</ele>
        <time>2016-11-16T13:50:42Z</time>
      </trkpt>
      <trkpt lat="45.53039" lon="6.05816">
        <ele>809.40247</ele>
        <time>2016-11-16T13:50:50Z</time>
      </trkpt>
      <trkpt lat="45.53044" lon="6.05805">
        <ele>809.8094</ele>
        <time>2016-11-16T13:50:57Z</time>
      </trkpt>
      <trkpt lat="45.53049" lon="6.05793">
        <ele>809.49493</ele>
        <time>2016-11-16T13:51:03Z</time>
      </trkpt>
      <trkpt lat="45.53054" lon="6.05781">
        <ele>809.2149</ele>
        <time>2016-11-16T13:51:11Z</time>
      </trkpt>
      <trkpt lat="45.5306" lon="6.05769">
        <ele>811.0909</ele>
        <time>2016-11-16T13:51:20Z</time>
      </trkpt>
      <trkpt lat="45.53067" lon="6.05759">
        <ele>811.18335</ele>
        <time>2016-11-16T13:51:25Z</time>
      </trkpt>
      <trkpt lat="45.53073" lon="6.0575">
        <ele>809.8147</ele>
        <time>2016-11-16T13:51:33Z</time>
      </trkpt>
      <trkpt lat="45.53081" lon="6.05743">
        <ele>809.8279</ele>
        <time>2016-11-16T13:51:40Z</time>
      </trkpt>
      <trkpt lat="45.53088" lon="6.05734">
        <ele>810.4779</ele>
        <time>2016-11-16T13:51:46Z</time>
      </trkpt>
      <trkpt lat="45.53095" lon="6.05724">
        <ele>810.0551</ele>
        <time>2016-11-16T13:51:54Z</time>
      </trkpt>
      <trkpt lat="45.53103" lon="6.05716">
        <ele>811.46344</ele>
        <time>2016-11-16T13:52:02Z</time>
      </trkpt>
      <trkpt lat="45.53109" lon="6.05706">
        <ele>811.80164</ele>
        <time>2016-11-16T13:52:08Z</time>
      </trkpt>
      <trkpt lat="45.53119" lon="6.05699">
        <ele>810.40656</ele>
        <time>2016-11-16T13:52:13Z</time>
      </trkpt>
      <trkpt lat="45.53126" lon="6.05691">
        <ele>811.22034</ele>
        <time>2016-11-16T13:52:19Z</time>
      </trkpt>
      <trkpt lat="45.53132" lon="6.05681">
        <ele>812.53357</ele>
        <time>2016-11-16T13:52:28Z</time>
      </trkpt>
      <trkpt lat="45.5314" lon="6.05673">
        <ele>811.2521</ele>
        <time>2016-11-16T13:52:38Z</time>
      </trkpt>
      <trkpt lat="45.53148" lon="6.05666">
        <ele>812.00775</ele>
        <time>2016-11-16T13:52:48Z</time>
      </trkpt>
      <trkpt lat="45.53157" lon="6.05659">
        <ele>813.69354</ele>
        <time>2016-11-16T13:52:55Z</time>
      </trkpt>
      <trkpt lat="45.53167" lon="6.05656">
        <ele>814.0846</ele>
        <time>2016-11-16T13:53:00Z</time>
      </trkpt>
      <trkpt lat="45.53176" lon="6.0565">
        <ele>814.73193</ele>
        <time>2016-11-16T13:53:09Z</time>
      </trkpt>
      <trkpt lat="45.53185" lon="6.05645">
        <ele>814.8878</ele>
        <time>2016-11-16T13:53:14Z</time>
      </trkpt>
      <trkpt lat="45.53193" lon="6.05638">
        <ele>813.6275</ele>
        <time>2016-11-16T13:53:20Z</time>
      </trkpt>
      <trkpt lat="45.53202" lon="6.05633">
        <ele>815.4982</ele>
        <time>2016-11-16T13:53:26Z</time>
      </trkpt>
      <trkpt lat="45.53212" lon="6.05629">
        <ele>814.9433</ele>
        <time>2016-11-16T13:53:32Z</time>
      </trkpt>
      <trkpt lat="45.53221" lon="6.05625">
        <ele>814.57074</ele>
        <time>2016-11-16T13:53:38Z</time>
      </trkpt>
      <trkpt lat="45.53228" lon="6.05619">
        <ele>815.1864</ele>
        <time>2016-11-16T13:53:45Z</time>
      </trkpt>
      <trkpt lat="45.53238" lon="6.05612">
        <ele>815.6224</ele>
        <time>2016-11-16T13:53:53Z</time>
      </trkpt>
      <trkpt lat="45.53246" lon="6.05603">
        <ele>816.42566</ele>
        <time>2016-11-16T13:54:01Z</time>
      </trkpt>
      <trkpt lat="45.53255" lon="6.05595">
        <ele>818.26465</ele>
        <time>2016-11-16T13:54:09Z</time>
      </trkpt>
      <trkpt lat="45.53264" lon="6.05588">
        <ele>816.84576</ele>
        <time>2016-11-16T13:54:16Z</time>
      </trkpt>
      <trkpt lat="45.53272" lon="6.0558">
        <ele>816.8141</ele>
        <time>2016-11-16T13:54:25Z</time>
      </trkpt>
      <trkpt lat="45.53285" lon="6.05572">
        <ele>817.7336</ele>
        <time>2016-11-16T13:54:48Z</time>
      </trkpt>
      <trkpt lat="45.53291" lon="6.05561">
        <ele>819.459</ele>
        <time>2016-11-16T13:54:58Z</time>
      </trkpt>
      <trkpt lat="45.533" lon="6.05555">
        <ele>818.92523</ele>
        <time>2016-11-16T13:55:06Z</time>
      </trkpt>
      <trkpt lat="45.53308" lon="6.05547">
        <ele>819.07587</ele>
        <time>2016-11-16T13:55:11Z</time>
      </trkpt>
      <trkpt lat="45.53308" lon="6.05532">
        <ele>816.10596</ele>
        <time>2016-11-16T13:55:30Z</time>
      </trkpt>
      <trkpt lat="45.53313" lon="6.05519">
        <ele>815.2287</ele>
        <time>2016-11-16T13:55:35Z</time>
      </trkpt>
      <trkpt lat="45.53323" lon="6.05514">
        <ele>814.7108</ele>
        <time>2016-11-16T13:55:40Z</time>
      </trkpt>
      <trkpt lat="45.53318" lon="6.05502">
        <ele>812.35657</ele>
        <time>2016-11-16T13:55:49Z</time>
      </trkpt>
      <trkpt lat="45.53324" lon="6.05492">
        <ele>812.26404</ele>
        <time>2016-11-16T13:55:56Z</time>
      </trkpt>
      <trkpt lat="45.53315" lon="6.05496">
        <ele>813.5826</ele>
        <time>2016-11-16T13:56:02Z</time>
      </trkpt>
      <trkpt lat="45.53302" lon="6.05496">
        <ele>814.01855</ele>
        <time>2016-11-16T13:56:06Z</time>
      </trkpt>
      <trkpt lat="45.53293" lon="6.05494">
        <ele>811.8757</ele>
        <time>2016-11-16T13:56:12Z</time>
      </trkpt>
      <trkpt lat="45.53283" lon="6.05497">
        <ele>812.6234</ele>
        <time>2016-11-16T13:56:19Z</time>
      </trkpt>
      <trkpt lat="45.53271" lon="6.05494">
        <ele>812.6287</ele>
        <time>2016-11-16T13:56:24Z</time>
      </trkpt>
      <trkpt lat="45.53265" lon="6.0548">
        <ele>813.5403</ele>
        <time>2016-11-16T13:56:40Z</time>
      </trkpt>
      <trkpt lat="45.5326" lon="6.05466">
        <ele>814.00006</ele>
        <time>2016-11-16T13:56:48Z</time>
      </trkpt>
      <trkpt lat="45.53255" lon="6.05454">
        <ele>817.0122</ele>
        <time>2016-11-16T13:56:54Z</time>
      </trkpt>
      <trkpt lat="45.53251" lon="6.05442">
        <ele>817.88684</ele>
        <time>2016-11-16T13:56:58Z</time>
      </trkpt>
      <trkpt lat="45.53246" lon="6.0543">
        <ele>817.1734</ele>
        <time>2016-11-16T13:57:05Z</time>
      </trkpt>
      <trkpt lat="45.53238" lon="6.05424">
        <ele>818.0956</ele>
        <time>2016-11-16T13:57:14Z</time>
      </trkpt>
      <trkpt lat="45.53229" lon="6.05421">
        <ele>819.9346</ele>
        <time>2016-11-16T13:57:21Z</time>
      </trkpt>
      <trkpt lat="45.5322" lon="6.05414">
        <ele>820.23846</ele>
        <time>2016-11-16T13:57:29Z</time>
      </trkpt>
      <trkpt lat="45.53212" lon="6.05409">
        <ele>818.7403</ele>
        <time>2016-11-16T13:57:36Z</time>
      </trkpt>
      <trkpt lat="45.53204" lon="6.05402">
        <ele>819.1393</ele>
        <time>2016-11-16T13:57:43Z</time>
      </trkpt>
      <trkpt lat="45.53196" lon="6.05393">
        <ele>819.34534</ele>
        <time>2016-11-16T13:57:49Z</time>
      </trkpt>
      <trkpt lat="45.53187" lon="6.05387">
        <ele>820.97565</ele>
        <time>2016-11-16T13:57:56Z</time>
      </trkpt>
      <trkpt lat="45.53179" lon="6.0538">
        <ele>820.685</ele>
        <time>2016-11-16T13:58:03Z</time>
      </trkpt>
      <trkpt lat="45.5317" lon="6.05372">
        <ele>820.3838</ele>
        <time>2016-11-16T13:58:10Z</time>
      </trkpt>
      <trkpt lat="45.53162" lon="6.05364">
        <ele>819.5726</ele>
        <time>2016-11-16T13:58:17Z</time>
      </trkpt>
      <trkpt lat="45.53153" lon="6.05361">
        <ele>821.0443</ele>
        <time>2016-11-16T13:58:25Z</time>
      </trkpt>
      <trkpt lat="45.53145" lon="6.05353">
        <ele>822.15674</ele>
        <time>2016-11-16T13:58:37Z</time>
      </trkpt>
      <trkpt lat="45.53137" lon="6.05346">
        <ele>820.862</ele>
        <time>2016-11-16T13:58:41Z</time>
      </trkpt>
      <trkpt lat="45.53128" lon="6.05338">
        <ele>820.3256</ele>
        <time>2016-11-16T13:58:47Z</time>
      </trkpt>
      <trkpt lat="45.53119" lon="6.05334">
        <ele>820.6427</ele>
        <time>2016-11-16T13:58:58Z</time>
      </trkpt>
      <trkpt lat="45.5311" lon="6.05328">
        <ele>820.23315</ele>
        <time>2016-11-16T13:59:05Z</time>
      </trkpt>
      <trkpt lat="45.53102" lon="6.05322">
        <ele>820.5793</ele>
        <time>2016-11-16T13:59:15Z</time>
      </trkpt>
      <trkpt lat="45.53094" lon="6.05314">
        <ele>820.1988</ele>
        <time>2016-11-16T13:59:20Z</time>
      </trkpt>
      <trkpt lat="45.53084" lon="6.05305">
        <ele>820.9783</ele>
        <time>2016-11-16T13:59:29Z</time>
      </trkpt>
      <trkpt lat="45.53076" lon="6.053">
        <ele>823.36957</ele>
        <time>2016-11-16T13:59:37Z</time>
      </trkpt>
      <trkpt lat="45.53067" lon="6.05298">
        <ele>821.6309</ele>
        <time>2016-11-16T13:59:44Z</time>
      </trkpt>
      <trkpt lat="45.53057" lon="6.053">
        <ele>821.81854</ele>
        <time>2016-11-16T13:59:50Z</time>
      </trkpt>
      <trkpt lat="45.53048" lon="6.05303">
        <ele>822.77765</ele>
        <time>2016-11-16T13:59:58Z</time>
      </trkpt>
      <trkpt lat="45.53038" lon="6.05305">
        <ele>823.248</ele>
        <time>2016-11-16T14:00:05Z</time>
      </trkpt>
      <trkpt lat="45.53029" lon="6.05306">
        <ele>824.50305</ele>
        <time>2016-11-16T14:00:13Z</time>
      </trkpt>
      <trkpt lat="45.53019" lon="6.05306">
        <ele>824.9364</ele>
        <time>2016-11-16T14:00:21Z</time>
      </trkpt>
      <trkpt lat="45.53008" lon="6.05308">
        <ele>826.62744</ele>
        <time>2016-11-16T14:00:29Z</time>
      </trkpt>
      <trkpt lat="45.52999" lon="6.05315">
        <ele>824.6114</ele>
        <time>2016-11-16T14:00:42Z</time>
      </trkpt>
      <trkpt lat="45.52987" lon="6.05321">
        <ele>824.24677</ele>
        <time>2016-11-16T14:00:46Z</time>
      </trkpt>
      <trkpt lat="45.52984" lon="6.05323">
        <ele>825.2112</ele>
        <time>2016-11-16T14:01:28Z</time>
      </trkpt>
    </trkseg>
  </trk>
</gpx>